<?xml version="1.0" encoding="utf-8"?>
<gpx xmlns:xsi="http://www.w3.org/2001/XMLSchema-instance" xmlns:xsd="http://www.w3.org/2001/XMLSchema" version="1.1" creator="Shapelink.com" xmlns="http://www.topografix.com/GPX/1/1" xmlns:gpxtpx="http://www.garmin.com/xmlschemas/TrackPointExtension/v1">
  <metadata>
    <name>Ejecutar 4.82 km, 2020-03-19</name>
    <desc></desc>
    <author><name>Per Rooth</name></author> 
    <time>2020-03-19T18:53:42Z</time>
  </metadata>
  <trk>
    <name>Ejecutar 4.82 km, 2020-03-19</name>
    <trkseg>
      <trkpt lat="57.032898132284" lon="14.963282216982">
        <ele>189.2</ele>
        <time>2020-03-19T18:53:42Z</time>
      </trkpt>
      <trkpt lat="57.032971473909" lon="14.963618666448">
        <ele>188.4</ele>
        <time>2020-03-19T18:53:49Z</time>
      </trkpt>
      <trkpt lat="57.032998463627" lon="14.963710029158">
        <ele>188</ele>
        <time>2020-03-19T18:53:51Z</time>
      </trkpt>
      <trkpt lat="57.033120839367" lon="14.96402753553">
        <ele>187.8</ele>
        <time>2020-03-19T18:53:57Z</time>
      </trkpt>
      <trkpt lat="57.033241035813" lon="14.964330205939">
        <ele>187.4</ele>
        <time>2020-03-19T18:54:03Z</time>
      </trkpt>
      <trkpt lat="57.033330889781" lon="14.964619465308">
        <ele>187</ele>
        <time>2020-03-19T18:54:09Z</time>
      </trkpt>
      <trkpt lat="57.033353688549" lon="14.964725999257">
        <ele>186.6</ele>
        <time>2020-03-19T18:54:11Z</time>
      </trkpt>
      <trkpt lat="57.033461060688" lon="14.965013666065">
        <ele>187.2</ele>
        <time>2020-03-19T18:54:17Z</time>
      </trkpt>
      <trkpt lat="57.033627860498" lon="14.965247688713">
        <ele>187.6</ele>
        <time>2020-03-19T18:54:22Z</time>
      </trkpt>
      <trkpt lat="57.033662142469" lon="14.965389678099">
        <ele>188</ele>
        <time>2020-03-19T18:54:25Z</time>
      </trkpt>
      <trkpt lat="57.033724252348" lon="14.965683128418">
        <ele>188.4</ele>
        <time>2020-03-19T18:54:31Z</time>
      </trkpt>
      <trkpt lat="57.033830702478" lon="14.96591094846">
        <ele>189</ele>
        <time>2020-03-19T18:54:36Z</time>
      </trkpt>
      <trkpt lat="57.033965148154" lon="14.966182186744">
        <ele>189.2</ele>
        <time>2020-03-19T18:54:43Z</time>
      </trkpt>
      <trkpt lat="57.034001441781" lon="14.966320152818">
        <ele>189.4</ele>
        <time>2020-03-19T18:54:46Z</time>
      </trkpt>
      <trkpt lat="57.034116860544" lon="14.966625756892">
        <ele>189.8</ele>
        <time>2020-03-19T18:54:52Z</time>
      </trkpt>
      <trkpt lat="57.03415072342" lon="14.96672147819">
        <ele>190.2</ele>
        <time>2020-03-19T18:54:54Z</time>
      </trkpt>
      <trkpt lat="57.034219957914" lon="14.966914345709">
        <ele>190.4</ele>
        <time>2020-03-19T18:54:58Z</time>
      </trkpt>
      <trkpt lat="57.034321881818" lon="14.967248029148">
        <ele>190.4</ele>
        <time>2020-03-19T18:55:04Z</time>
      </trkpt>
      <trkpt lat="57.034366222069" lon="14.967372081268">
        <ele>191.2</ele>
        <time>2020-03-19T18:55:07Z</time>
      </trkpt>
      <trkpt lat="57.034502595582" lon="14.967643738647">
        <ele>191.8</ele>
        <time>2020-03-19T18:55:13Z</time>
      </trkpt>
      <trkpt lat="57.034534111526" lon="14.967702411947">
        <ele>192</ele>
        <time>2020-03-19T18:55:15Z</time>
      </trkpt>
      <trkpt lat="57.0345798767" lon="14.967730575131">
        <ele>192.2</ele>
        <time>2020-03-19T18:55:17Z</time>
      </trkpt>
      <trkpt lat="57.034642657131" lon="14.967736777737">
        <ele>192.6</ele>
        <time>2020-03-19T18:55:19Z</time>
      </trkpt>
      <trkpt lat="57.034741982646" lon="14.967724288706">
        <ele>192.8</ele>
        <time>2020-03-19T18:55:23Z</time>
      </trkpt>
      <trkpt lat="57.034803757249" lon="14.967741890696">
        <ele>192.2</ele>
        <time>2020-03-19T18:55:26Z</time>
      </trkpt>
      <trkpt lat="57.034863939291" lon="14.967783045825">
        <ele>193.4</ele>
        <time>2020-03-19T18:55:29Z</time>
      </trkpt>
      <trkpt lat="57.035001150994" lon="14.967798719978">
        <ele>194.6</ele>
        <time>2020-03-19T18:55:32Z</time>
      </trkpt>
      <trkpt lat="57.035118497594" lon="14.967711129123">
        <ele>194</ele>
        <time>2020-03-19T18:55:37Z</time>
      </trkpt>
      <trkpt lat="57.035312370941" lon="14.9676510309">
        <ele>195.2</ele>
        <time>2020-03-19T18:55:45Z</time>
      </trkpt>
      <trkpt lat="57.035323518868" lon="14.967665028673">
        <ele>195.4</ele>
        <time>2020-03-19T18:55:46Z</time>
      </trkpt>
      <trkpt lat="57.035356795011" lon="14.967690761106">
        <ele>195</ele>
        <time>2020-03-19T18:55:49Z</time>
      </trkpt>
      <trkpt lat="57.035458216001" lon="14.967621107517">
        <ele>195</ele>
        <time>2020-03-19T18:55:54Z</time>
      </trkpt>
      <trkpt lat="57.035593416048" lon="14.967468724575">
        <ele>193.8</ele>
        <time>2020-03-19T18:56:01Z</time>
      </trkpt>
      <trkpt lat="57.035600037749" lon="14.967452966603">
        <ele>193.4</ele>
        <time>2020-03-19T18:56:02Z</time>
      </trkpt>
      <trkpt lat="57.035608503468" lon="14.967444752341">
        <ele>193.4</ele>
        <time>2020-03-19T18:56:03Z</time>
      </trkpt>
      <trkpt lat="57.035731717398" lon="14.967411811474">
        <ele>194.4</ele>
        <time>2020-03-19T18:56:09Z</time>
      </trkpt>
      <trkpt lat="57.035848728722" lon="14.967360430427">
        <ele>195.6</ele>
        <time>2020-03-19T18:56:14Z</time>
      </trkpt>
      <trkpt lat="57.036008655374" lon="14.967316257814">
        <ele>196.8</ele>
        <time>2020-03-19T18:56:19Z</time>
      </trkpt>
      <trkpt lat="57.036126504888" lon="14.967280634739">
        <ele>197.8</ele>
        <time>2020-03-19T18:56:24Z</time>
      </trkpt>
      <trkpt lat="57.036156092995" lon="14.967268480984">
        <ele>198</ele>
        <time>2020-03-19T18:56:26Z</time>
      </trkpt>
      <trkpt lat="57.036188111853" lon="14.967240653076">
        <ele>198.4</ele>
        <time>2020-03-19T18:56:29Z</time>
      </trkpt>
      <trkpt lat="57.036212754639" lon="14.967247945329">
        <ele>198.8</ele>
        <time>2020-03-19T18:56:31Z</time>
      </trkpt>
      <trkpt lat="57.036266063523" lon="14.967225900932">
        <ele>200</ele>
        <time>2020-03-19T18:56:35Z</time>
      </trkpt>
      <trkpt lat="57.036284168427" lon="14.967208131304">
        <ele>200.2</ele>
        <time>2020-03-19T18:56:36Z</time>
      </trkpt>
      <trkpt lat="57.036288359377" lon="14.967163791053">
        <ele>200.8</ele>
        <time>2020-03-19T18:56:39Z</time>
      </trkpt>
      <trkpt lat="57.036282994961" lon="14.967155828248">
        <ele>201</ele>
        <time>2020-03-19T18:56:40Z</time>
      </trkpt>
      <trkpt lat="57.036278804011" lon="14.96714979328">
        <ele>201.2</ele>
        <time>2020-03-19T18:56:41Z</time>
      </trkpt>
      <trkpt lat="57.036240498728" lon="14.967196899558">
        <ele>200</ele>
        <time>2020-03-19T18:56:54Z</time>
      </trkpt>
      <trkpt lat="57.036220046892" lon="14.967167982003">
        <ele>199.2</ele>
        <time>2020-03-19T18:56:56Z</time>
      </trkpt>
      <trkpt lat="57.036212754639" lon="14.967155744429">
        <ele>198.6</ele>
        <time>2020-03-19T18:56:57Z</time>
      </trkpt>
      <trkpt lat="57.036211497354" lon="14.967141159923">
        <ele>198.4</ele>
        <time>2020-03-19T18:56:58Z</time>
      </trkpt>
      <trkpt lat="57.036255167053" lon="14.967114924576">
        <ele>197.4</ele>
        <time>2020-03-19T18:57:04Z</time>
      </trkpt>
      <trkpt lat="57.036256675795" lon="14.967100926803">
        <ele>197.2</ele>
        <time>2020-03-19T18:57:06Z</time>
      </trkpt>
      <trkpt lat="57.036308475937" lon="14.966969079516">
        <ele>196.4</ele>
        <time>2020-03-19T18:57:29Z</time>
      </trkpt>
      <trkpt lat="57.036326748479" lon="14.966898168642">
        <ele>195.2</ele>
        <time>2020-03-19T18:57:32Z</time>
      </trkpt>
      <trkpt lat="57.036326916117" lon="14.966864473404">
        <ele>194.4</ele>
        <time>2020-03-19T18:57:34Z</time>
      </trkpt>
      <trkpt lat="57.036329598325" lon="14.966865814508">
        <ele>194.2</ele>
        <time>2020-03-19T18:57:35Z</time>
      </trkpt>
      <trkpt lat="57.036344853383" lon="14.966885847249">
        <ele>193.8</ele>
        <time>2020-03-19T18:57:38Z</time>
      </trkpt>
      <trkpt lat="57.036383074847" lon="14.966966564946">
        <ele>195.4</ele>
        <time>2020-03-19T18:57:43Z</time>
      </trkpt>
      <trkpt lat="57.036414087877" lon="14.966993387026">
        <ele>195.8</ele>
        <time>2020-03-19T18:57:46Z</time>
      </trkpt>
      <trkpt lat="57.036436299912" lon="14.967031021757">
        <ele>195.8</ele>
        <time>2020-03-19T18:57:48Z</time>
      </trkpt>
      <trkpt lat="57.036606452482" lon="14.96719254097">
        <ele>195</ele>
        <time>2020-03-19T18:57:59Z</time>
      </trkpt>
      <trkpt lat="57.036637381693" lon="14.967205449096">
        <ele>195</ele>
        <time>2020-03-19T18:58:01Z</time>
      </trkpt>
      <trkpt lat="57.036663449402" lon="14.967218860136">
        <ele>194.8</ele>
        <time>2020-03-19T18:58:03Z</time>
      </trkpt>
      <trkpt lat="57.036702509056" lon="14.967226403846">
        <ele>194.2</ele>
        <time>2020-03-19T18:58:05Z</time>
      </trkpt>
      <trkpt lat="57.036764786573" lon="14.967230678615">
        <ele>193.6</ele>
        <time>2020-03-19T18:58:07Z</time>
      </trkpt>
      <trkpt lat="57.036784148762" lon="14.967227074398">
        <ele>193.2</ele>
        <time>2020-03-19T18:58:08Z</time>
      </trkpt>
      <trkpt lat="57.036796134879" lon="14.967224308371">
        <ele>192.8</ele>
        <time>2020-03-19T18:58:09Z</time>
      </trkpt>
      <trkpt lat="57.036813150136" lon="14.96723528866">
        <ele>192.4</ele>
        <time>2020-03-19T18:58:12Z</time>
      </trkpt>
      <trkpt lat="57.036904764303" lon="14.967283400766">
        <ele>192.2</ele>
        <time>2020-03-19T18:58:18Z</time>
      </trkpt>
      <trkpt lat="57.036941728482" lon="14.967359759875">
        <ele>192.6</ele>
        <time>2020-03-19T18:58:23Z</time>
      </trkpt>
      <trkpt lat="57.03699637847" lon="14.96736017897">
        <ele>192.6</ele>
        <time>2020-03-19T18:58:27Z</time>
      </trkpt>
      <trkpt lat="57.037006855845" lon="14.967354898373">
        <ele>192.6</ele>
        <time>2020-03-19T18:58:28Z</time>
      </trkpt>
      <trkpt lat="57.037127387567" lon="14.96744232159">
        <ele>193.2</ele>
        <time>2020-03-19T18:58:37Z</time>
      </trkpt>
      <trkpt lat="57.037177092234" lon="14.967468473118">
        <ele>193.8</ele>
        <time>2020-03-19T18:58:43Z</time>
      </trkpt>
      <trkpt lat="57.0372117933" lon="14.967504263831">
        <ele>194</ele>
        <time>2020-03-19T18:58:46Z</time>
      </trkpt>
      <trkpt lat="57.037224449969" lon="14.967522033459">
        <ele>194.2</ele>
        <time>2020-03-19T18:58:47Z</time>
      </trkpt>
      <trkpt lat="57.037238028647" lon="14.96754122801">
        <ele>194.6</ele>
        <time>2020-03-19T18:58:48Z</time>
      </trkpt>
      <trkpt lat="57.037243895977" lon="14.967552795032">
        <ele>195.4</ele>
        <time>2020-03-19T18:58:49Z</time>
      </trkpt>
      <trkpt lat="57.037262336157" lon="14.967585568261">
        <ele>196.6</ele>
        <time>2020-03-19T18:58:51Z</time>
      </trkpt>
      <trkpt lat="57.037291505169" lon="14.967615324006">
        <ele>197.4</ele>
        <time>2020-03-19T18:58:53Z</time>
      </trkpt>
      <trkpt lat="57.037345233148" lon="14.967651282357">
        <ele>197.8</ele>
        <time>2020-03-19T18:58:55Z</time>
      </trkpt>
      <trkpt lat="57.037443217559" lon="14.967731078045">
        <ele>198.8</ele>
        <time>2020-03-19T18:59:00Z</time>
      </trkpt>
      <trkpt lat="57.03754874568" lon="14.967849765749">
        <ele>199.8</ele>
        <time>2020-03-19T18:59:06Z</time>
      </trkpt>
      <trkpt lat="57.037729878539" lon="14.968003489795">
        <ele>200.4</ele>
        <time>2020-03-19T18:59:14Z</time>
      </trkpt>
      <trkpt lat="57.037837166859" lon="14.968094852505">
        <ele>200.8</ele>
        <time>2020-03-19T18:59:20Z</time>
      </trkpt>
      <trkpt lat="57.037950406328" lon="14.968192585459">
        <ele>201.2</ele>
        <time>2020-03-19T18:59:27Z</time>
      </trkpt>
      <trkpt lat="57.038001955013" lon="14.96821764734">
        <ele>201.4</ele>
        <time>2020-03-19T18:59:30Z</time>
      </trkpt>
      <trkpt lat="57.038037158993" lon="14.968259640659">
        <ele>201.6</ele>
        <time>2020-03-19T18:59:32Z</time>
      </trkpt>
      <trkpt lat="57.038073871715" lon="14.96829811358">
        <ele>201.8</ele>
        <time>2020-03-19T18:59:34Z</time>
      </trkpt>
      <trkpt lat="57.038092311895" lon="14.968311105525">
        <ele>202</ele>
        <time>2020-03-19T18:59:35Z</time>
      </trkpt>
      <trkpt lat="57.038108572781" lon="14.968319403606">
        <ele>202</ele>
        <time>2020-03-19T18:59:36Z</time>
      </trkpt>
      <trkpt lat="57.038230361788" lon="14.968373634499">
        <ele>203.2</ele>
        <time>2020-03-19T18:59:43Z</time>
      </trkpt>
      <trkpt lat="57.038278473894" lon="14.968394756887">
        <ele>203.2</ele>
        <time>2020-03-19T18:59:46Z</time>
      </trkpt>
      <trkpt lat="57.038463797703" lon="14.968345219858">
        <ele>204</ele>
        <time>2020-03-19T18:59:55Z</time>
      </trkpt>
      <trkpt lat="57.038477041105" lon="14.968349075532">
        <ele>204</ele>
        <time>2020-03-19T18:59:56Z</time>
      </trkpt>
      <trkpt lat="57.038519285881" lon="14.968396349448">
        <ele>204.2</ele>
        <time>2020-03-19T18:59:58Z</time>
      </trkpt>
      <trkpt lat="57.038684912225" lon="14.968478156792">
        <ele>205.2</ele>
        <time>2020-03-19T19:00:06Z</time>
      </trkpt>
      <trkpt lat="57.038861435039" lon="14.968508415451">
        <ele>206.4</ele>
        <time>2020-03-19T19:00:14Z</time>
      </trkpt>
      <trkpt lat="57.039043154631" lon="14.968476145136">
        <ele>207.4</ele>
        <time>2020-03-19T19:00:23Z</time>
      </trkpt>
      <trkpt lat="57.039231747381" lon="14.968435241464">
        <ele>207.6</ele>
        <time>2020-03-19T19:00:33Z</time>
      </trkpt>
      <trkpt lat="57.039398547191" lon="14.96828721711">
        <ele>208</ele>
        <time>2020-03-19T19:00:40Z</time>
      </trkpt>
      <trkpt lat="57.039567610114" lon="14.968147574656">
        <ele>207.4</ele>
        <time>2020-03-19T19:00:47Z</time>
      </trkpt>
      <trkpt lat="57.03959057652" lon="14.968146065914">
        <ele>207.2</ele>
        <time>2020-03-19T19:00:48Z</time>
      </trkpt>
      <trkpt lat="57.039701133781" lon="14.96809108065">
        <ele>206.4</ele>
        <time>2020-03-19T19:00:54Z</time>
      </trkpt>
      <trkpt lat="57.039755364674" lon="14.968041292164">
        <ele>206.2</ele>
        <time>2020-03-19T19:00:57Z</time>
      </trkpt>
      <trkpt lat="57.039796184527" lon="14.968039029051">
        <ele>206</ele>
        <time>2020-03-19T19:00:59Z</time>
      </trkpt>
      <trkpt lat="57.039842620253" lon="14.968020085957">
        <ele>206</ele>
        <time>2020-03-19T19:01:01Z</time>
      </trkpt>
      <trkpt lat="57.039941442854" lon="14.967986642176">
        <ele>205.4</ele>
        <time>2020-03-19T19:01:06Z</time>
      </trkpt>
      <trkpt lat="57.039955105351" lon="14.967970548928">
        <ele>205.2</ele>
        <time>2020-03-19T19:01:07Z</time>
      </trkpt>
      <trkpt lat="57.040023585474" lon="14.967912378542">
        <ele>205</ele>
        <time>2020-03-19T19:01:12Z</time>
      </trkpt>
      <trkpt lat="57.040047138613" lon="14.967887232842">
        <ele>205</ele>
        <time>2020-03-19T19:01:14Z</time>
      </trkpt>
      <trkpt lat="57.040108494121" lon="14.967815819054">
        <ele>204.8</ele>
        <time>2020-03-19T19:01:20Z</time>
      </trkpt>
      <trkpt lat="57.040131125251" lon="14.967775585934">
        <ele>205</ele>
        <time>2020-03-19T19:01:22Z</time>
      </trkpt>
      <trkpt lat="57.040148308146" lon="14.96774239361">
        <ele>205</ele>
        <time>2020-03-19T19:01:25Z</time>
      </trkpt>
      <trkpt lat="57.040189630913" lon="14.967696544617">
        <ele>204.8</ele>
        <time>2020-03-19T19:01:31Z</time>
      </trkpt>
      <trkpt lat="57.040217877916" lon="14.967692186029">
        <ele>204.8</ele>
        <time>2020-03-19T19:01:34Z</time>
      </trkpt>
      <trkpt lat="57.040235479906" lon="14.967657233506">
        <ele>204.6</ele>
        <time>2020-03-19T19:01:36Z</time>
      </trkpt>
      <trkpt lat="57.040252076068" lon="14.967632171625">
        <ele>204.8</ele>
        <time>2020-03-19T19:01:39Z</time>
      </trkpt>
      <trkpt lat="57.04032399277" lon="14.967558578543">
        <ele>205</ele>
        <time>2020-03-19T19:01:49Z</time>
      </trkpt>
      <trkpt lat="57.040404542829" lon="14.967493618818">
        <ele>204.8</ele>
        <time>2020-03-19T19:01:57Z</time>
      </trkpt>
      <trkpt lat="57.040442093741" lon="14.967466712919">
        <ele>205</ele>
        <time>2020-03-19T19:02:01Z</time>
      </trkpt>
      <trkpt lat="57.040478471187" lon="14.967440896667">
        <ele>205.2</ele>
        <time>2020-03-19T19:02:04Z</time>
      </trkpt>
      <trkpt lat="57.040703609021" lon="14.96731156395">
        <ele>205.4</ele>
        <time>2020-03-19T19:02:37Z</time>
      </trkpt>
      <trkpt lat="57.040637894925" lon="14.967320197307">
        <ele>206.4</ele>
        <time>2020-03-19T19:02:48Z</time>
      </trkpt>
      <trkpt lat="57.040599170547" lon="14.967338637487">
        <ele>206</ele>
        <time>2020-03-19T19:02:55Z</time>
      </trkpt>
      <trkpt lat="57.040422563914" lon="14.967478196122">
        <ele>206</ele>
        <time>2020-03-19T19:03:06Z</time>
      </trkpt>
      <trkpt lat="57.040228942024" lon="14.967520859993">
        <ele>205.6</ele>
        <time>2020-03-19T19:03:15Z</time>
      </trkpt>
      <trkpt lat="57.040161048634" lon="14.967587412279">
        <ele>205.2</ele>
        <time>2020-03-19T19:03:19Z</time>
      </trkpt>
      <trkpt lat="57.040036074505" lon="14.967720433032">
        <ele>204.8</ele>
        <time>2020-03-19T19:03:28Z</time>
      </trkpt>
      <trkpt lat="57.039995925204" lon="14.967749350587">
        <ele>205.4</ele>
        <time>2020-03-19T19:03:31Z</time>
      </trkpt>
      <trkpt lat="57.039983017078" lon="14.967764018912">
        <ele>205.6</ele>
        <time>2020-03-19T19:03:32Z</time>
      </trkpt>
      <trkpt lat="57.039957368464" lon="14.967785560395">
        <ele>205.8</ele>
        <time>2020-03-19T19:03:36Z</time>
      </trkpt>
      <trkpt lat="57.03987388474" lon="14.967692605124">
        <ele>205.8</ele>
        <time>2020-03-19T19:03:43Z</time>
      </trkpt>
      <trkpt lat="57.039881763726" lon="14.967595207446">
        <ele>205</ele>
        <time>2020-03-19T19:03:46Z</time>
      </trkpt>
      <trkpt lat="57.039813115965" lon="14.967336793469">
        <ele>204.2</ele>
        <time>2020-03-19T19:03:52Z</time>
      </trkpt>
      <trkpt lat="57.039765925868" lon="14.96709363455">
        <ele>203.4</ele>
        <time>2020-03-19T19:03:59Z</time>
      </trkpt>
      <trkpt lat="57.039757627787" lon="14.967081396976">
        <ele>203</ele>
        <time>2020-03-19T19:04:00Z</time>
      </trkpt>
      <trkpt lat="57.039735080476" lon="14.967004367315">
        <ele>201.8</ele>
        <time>2020-03-19T19:04:03Z</time>
      </trkpt>
      <trkpt lat="57.039735164295" lon="14.966972599914">
        <ele>201.8</ele>
        <time>2020-03-19T19:04:05Z</time>
      </trkpt>
      <trkpt lat="57.039744300566" lon="14.966917279374">
        <ele>202</ele>
        <time>2020-03-19T19:04:08Z</time>
      </trkpt>
      <trkpt lat="57.039770955008" lon="14.966867239431">
        <ele>202.2</ele>
        <time>2020-03-19T19:04:12Z</time>
      </trkpt>
      <trkpt lat="57.039781767659" lon="14.966805883923">
        <ele>202.2</ele>
        <time>2020-03-19T19:04:14Z</time>
      </trkpt>
      <trkpt lat="57.03977581651" lon="14.966622990865">
        <ele>202.2</ele>
        <time>2020-03-19T19:04:19Z</time>
      </trkpt>
      <trkpt lat="57.039744887299" lon="14.966565071936">
        <ele>202.2</ele>
        <time>2020-03-19T19:04:22Z</time>
      </trkpt>
      <trkpt lat="57.039704654179" lon="14.966400786696">
        <ele>202.6</ele>
        <time>2020-03-19T19:04:27Z</time>
      </trkpt>
      <trkpt lat="57.039655200969" lon="14.966161818727">
        <ele>203</ele>
        <time>2020-03-19T19:04:33Z</time>
      </trkpt>
      <trkpt lat="57.039661655032" lon="14.96608110103">
        <ele>203.4</ele>
        <time>2020-03-19T19:04:35Z</time>
      </trkpt>
      <trkpt lat="57.039659475738" lon="14.965998371677">
        <ele>204</ele>
        <time>2020-03-19T19:04:38Z</time>
      </trkpt>
      <trkpt lat="57.039663834326" lon="14.965885886579">
        <ele>204.2</ele>
        <time>2020-03-19T19:04:48Z</time>
      </trkpt>
      <trkpt lat="57.039652770218" lon="14.965803157226">
        <ele>204</ele>
        <time>2020-03-19T19:04:54Z</time>
      </trkpt>
      <trkpt lat="57.03957884186" lon="14.965495373858">
        <ele>203.6</ele>
        <time>2020-03-19T19:05:02Z</time>
      </trkpt>
      <trkpt lat="57.039570962874" lon="14.965400658388">
        <ele>202.8</ele>
        <time>2020-03-19T19:05:04Z</time>
      </trkpt>
      <trkpt lat="57.039541039491" lon="14.965238887718">
        <ele>201.6</ele>
        <time>2020-03-19T19:05:08Z</time>
      </trkpt>
      <trkpt lat="57.039469541884" lon="14.964937139318">
        <ele>200.4</ele>
        <time>2020-03-19T19:05:16Z</time>
      </trkpt>
      <trkpt lat="57.039443809451" lon="14.964858433277">
        <ele>200</ele>
        <time>2020-03-19T19:05:18Z</time>
      </trkpt>
      <trkpt lat="57.039414891896" lon="14.964793054457">
        <ele>199.4</ele>
        <time>2020-03-19T19:05:21Z</time>
      </trkpt>
      <trkpt lat="57.039338113692" lon="14.964552074832">
        <ele>198.4</ele>
        <time>2020-03-19T19:05:27Z</time>
      </trkpt>
      <trkpt lat="57.039219006893" lon="14.96430078547">
        <ele>197.8</ele>
        <time>2020-03-19T19:05:34Z</time>
      </trkpt>
      <trkpt lat="57.039181958895" lon="14.963974897198">
        <ele>198.2</ele>
        <time>2020-03-19T19:05:39Z</time>
      </trkpt>
      <trkpt lat="57.039133595332" lon="14.963622857398">
        <ele>199.4</ele>
        <time>2020-03-19T19:05:45Z</time>
      </trkpt>
      <trkpt lat="57.03906167863" lon="14.96329328109">
        <ele>200.4</ele>
        <time>2020-03-19T19:05:51Z</time>
      </trkpt>
      <trkpt lat="57.03905413492" lon="14.963236535627">
        <ele>200.6</ele>
        <time>2020-03-19T19:05:52Z</time>
      </trkpt>
      <trkpt lat="57.038995210163" lon="14.96291274283">
        <ele>200.6</ele>
        <time>2020-03-19T19:05:59Z</time>
      </trkpt>
      <trkpt lat="57.038841653755" lon="14.962644186754">
        <ele>200.2</ele>
        <time>2020-03-19T19:06:05Z</time>
      </trkpt>
      <trkpt lat="57.038669154253" lon="14.96243832729">
        <ele>199.8</ele>
        <time>2020-03-19T19:06:10Z</time>
      </trkpt>
      <trkpt lat="57.038610313315" lon="14.962356352308">
        <ele>199.6</ele>
        <time>2020-03-19T19:06:12Z</time>
      </trkpt>
      <trkpt lat="57.038452230681" lon="14.96214915174">
        <ele>198.6</ele>
        <time>2020-03-19T19:06:17Z</time>
      </trkpt>
      <trkpt lat="57.038415015045" lon="14.962113863941">
        <ele>198.4</ele>
        <time>2020-03-19T19:06:18Z</time>
      </trkpt>
      <trkpt lat="57.038284844138" lon="14.961958798791">
        <ele>197.4</ele>
        <time>2020-03-19T19:06:22Z</time>
      </trkpt>
      <trkpt lat="57.038191469772" lon="14.961803063089">
        <ele>196.2</ele>
        <time>2020-03-19T19:06:26Z</time>
      </trkpt>
      <trkpt lat="57.038107566953" lon="14.961686889955">
        <ele>195</ele>
        <time>2020-03-19T19:06:30Z</time>
      </trkpt>
      <trkpt lat="57.038043361599" lon="14.961591084838">
        <ele>194</ele>
        <time>2020-03-19T19:06:33Z</time>
      </trkpt>
      <trkpt lat="57.03799717733" lon="14.961401570079">
        <ele>192.8</ele>
        <time>2020-03-19T19:06:38Z</time>
      </trkpt>
      <trkpt lat="57.037995668588" lon="14.961371143782">
        <ele>192.8</ele>
        <time>2020-03-19T19:06:41Z</time>
      </trkpt>
      <trkpt lat="57.037981503177" lon="14.961335017793">
        <ele>192.8</ele>
        <time>2020-03-19T19:06:43Z</time>
      </trkpt>
      <trkpt lat="57.03797370801" lon="14.96126067034">
        <ele>192.6</ele>
        <time>2020-03-19T19:06:47Z</time>
      </trkpt>
      <trkpt lat="57.037971361078" lon="14.961222616514">
        <ele>192</ele>
        <time>2020-03-19T19:06:49Z</time>
      </trkpt>
      <trkpt lat="57.037978150417" lon="14.961210546578">
        <ele>191.8</ele>
        <time>2020-03-19T19:06:50Z</time>
      </trkpt>
      <trkpt lat="57.037977396046" lon="14.961194956244">
        <ele>191.6</ele>
        <time>2020-03-19T19:06:51Z</time>
      </trkpt>
      <trkpt lat="57.037953759088" lon="14.961145167758">
        <ele>191.4</ele>
        <time>2020-03-19T19:06:55Z</time>
      </trkpt>
      <trkpt lat="57.037936240917" lon="14.961089931037">
        <ele>191.4</ele>
        <time>2020-03-19T19:06:59Z</time>
      </trkpt>
      <trkpt lat="57.037914447977" lon="14.96100502239">
        <ele>191.6</ele>
        <time>2020-03-19T19:07:04Z</time>
      </trkpt>
      <trkpt lat="57.037894750512" lon="14.960970991876">
        <ele>191.6</ele>
        <time>2020-03-19T19:07:07Z</time>
      </trkpt>
      <trkpt lat="57.03786977245" lon="14.960950623859">
        <ele>191.8</ele>
        <time>2020-03-19T19:07:09Z</time>
      </trkpt>
      <trkpt lat="57.037841106352" lon="14.960903852857">
        <ele>192</ele>
        <time>2020-03-19T19:07:13Z</time>
      </trkpt>
      <trkpt lat="57.037810512417" lon="14.960887256695">
        <ele>192.8</ele>
        <time>2020-03-19T19:07:19Z</time>
      </trkpt>
      <trkpt lat="57.037781343405" lon="14.960847526489">
        <ele>194</ele>
        <time>2020-03-19T19:07:23Z</time>
      </trkpt>
      <trkpt lat="57.037777487731" lon="14.960833780173">
        <ele>194.4</ele>
        <time>2020-03-19T19:07:24Z</time>
      </trkpt>
      <trkpt lat="57.037773045324" lon="14.960816345821">
        <ele>195.2</ele>
        <time>2020-03-19T19:07:26Z</time>
      </trkpt>
      <trkpt lat="57.037748989271" lon="14.960768485172">
        <ele>196.2</ele>
        <time>2020-03-19T19:07:30Z</time>
      </trkpt>
      <trkpt lat="57.037740272095" lon="14.960755912322">
        <ele>196.6</ele>
        <time>2020-03-19T19:07:32Z</time>
      </trkpt>
      <trkpt lat="57.03772979472" lon="14.960734957572">
        <ele>197.2</ele>
        <time>2020-03-19T19:07:35Z</time>
      </trkpt>
      <trkpt lat="57.037730884367" lon="14.960685504362">
        <ele>197.8</ele>
        <time>2020-03-19T19:07:39Z</time>
      </trkpt>
      <trkpt lat="57.037697440586" lon="14.960603277923">
        <ele>198</ele>
        <time>2020-03-19T19:07:43Z</time>
      </trkpt>
      <trkpt lat="57.037684783917" lon="14.960585005381">
        <ele>198.6</ele>
        <time>2020-03-19T19:07:45Z</time>
      </trkpt>
      <trkpt lat="57.037664164443" lon="14.96056078169">
        <ele>199.6</ele>
        <time>2020-03-19T19:07:48Z</time>
      </trkpt>
      <trkpt lat="57.037655363448" lon="14.960556423102">
        <ele>200</ele>
        <time>2020-03-19T19:07:50Z</time>
      </trkpt>
      <trkpt lat="57.037645388987" lon="14.960540497492">
        <ele>200.4</ele>
        <time>2020-03-19T19:07:53Z</time>
      </trkpt>
      <trkpt lat="57.037636671811" lon="14.960519207466">
        <ele>200.6</ele>
        <time>2020-03-19T19:07:55Z</time>
      </trkpt>
      <trkpt lat="57.037630217748" lon="14.96049875563">
        <ele>200.8</ele>
        <time>2020-03-19T19:07:56Z</time>
      </trkpt>
      <trkpt lat="57.037633319051" lon="14.960483249115">
        <ele>200.8</ele>
        <time>2020-03-19T19:07:58Z</time>
      </trkpt>
      <trkpt lat="57.037635414526" lon="14.960478136156">
        <ele>200.6</ele>
        <time>2020-03-19T19:08:00Z</time>
      </trkpt>
      <trkpt lat="57.037658045656" lon="14.960450811162">
        <ele>199.2</ele>
        <time>2020-03-19T19:08:04Z</time>
      </trkpt>
      <trkpt lat="57.037663745348" lon="14.960466233858">
        <ele>198.2</ele>
        <time>2020-03-19T19:08:06Z</time>
      </trkpt>
      <trkpt lat="57.037649579937" lon="14.960446284936">
        <ele>197.6</ele>
        <time>2020-03-19T19:08:09Z</time>
      </trkpt>
      <trkpt lat="57.037604988229" lon="14.960334973304">
        <ele>197.6</ele>
        <time>2020-03-19T19:08:13Z</time>
      </trkpt>
      <trkpt lat="57.0375303055" lon="14.96015006859">
        <ele>196.8</ele>
        <time>2020-03-19T19:08:19Z</time>
      </trkpt>
      <trkpt lat="57.037386472096" lon="14.959984526065">
        <ele>197.6</ele>
        <time>2020-03-19T19:08:29Z</time>
      </trkpt>
      <trkpt lat="57.037373983065" lon="14.95989442064">
        <ele>198</ele>
        <time>2020-03-19T19:08:32Z</time>
      </trkpt>
      <trkpt lat="57.037307598417" lon="14.959682526208">
        <ele>198.2</ele>
        <time>2020-03-19T19:08:40Z</time>
      </trkpt>
      <trkpt lat="57.037314303937" lon="14.959510361982">
        <ele>198.4</ele>
        <time>2020-03-19T19:08:47Z</time>
      </trkpt>
      <trkpt lat="57.037257307017" lon="14.959339622679">
        <ele>198.4</ele>
        <time>2020-03-19T19:08:53Z</time>
      </trkpt>
      <trkpt lat="57.037232328955" lon="14.959303748147">
        <ele>198.8</ele>
        <time>2020-03-19T19:08:56Z</time>
      </trkpt>
      <trkpt lat="57.037230149661" lon="14.959298886645">
        <ele>199</ele>
        <time>2020-03-19T19:08:57Z</time>
      </trkpt>
      <trkpt lat="57.037221767761" lon="14.959316740092">
        <ele>199.4</ele>
        <time>2020-03-19T19:09:00Z</time>
      </trkpt>
      <trkpt lat="57.037176002587" lon="14.959293186953">
        <ele>200</ele>
        <time>2020-03-19T19:09:04Z</time>
      </trkpt>
      <trkpt lat="57.03716653104" lon="14.959258318249">
        <ele>200</ele>
        <time>2020-03-19T19:09:06Z</time>
      </trkpt>
      <trkpt lat="57.037155215475" lon="14.959213391265">
        <ele>200.2</ele>
        <time>2020-03-19T19:09:09Z</time>
      </trkpt>
      <trkpt lat="57.037141133883" lon="14.959159244191">
        <ele>201</ele>
        <time>2020-03-19T19:09:14Z</time>
      </trkpt>
      <trkpt lat="57.037155550751" lon="14.959141306925">
        <ele>201</ele>
        <time>2020-03-19T19:09:16Z</time>
      </trkpt>
      <trkpt lat="57.037162675366" lon="14.959103253099">
        <ele>200.8</ele>
        <time>2020-03-19T19:09:19Z</time>
      </trkpt>
      <trkpt lat="57.037175499673" lon="14.959073078259">
        <ele>200.2</ele>
        <time>2020-03-19T19:09:22Z</time>
      </trkpt>
      <trkpt lat="57.037180193537" lon="14.959052542604">
        <ele>200</ele>
        <time>2020-03-19T19:09:24Z</time>
      </trkpt>
      <trkpt lat="57.037183630116" lon="14.95903024675">
        <ele>200</ele>
        <time>2020-03-19T19:09:26Z</time>
      </trkpt>
      <trkpt lat="57.03713551801" lon="14.958928490484">
        <ele>201</ele>
        <time>2020-03-19T19:09:32Z</time>
      </trkpt>
      <trkpt lat="57.037122526065" lon="14.958913570702">
        <ele>201.2</ele>
        <time>2020-03-19T19:09:33Z</time>
      </trkpt>
      <trkpt lat="57.037108779749" lon="14.958916672005">
        <ele>201.6</ele>
        <time>2020-03-19T19:09:34Z</time>
      </trkpt>
      <trkpt lat="57.037100397849" lon="14.958888257364">
        <ele>202.4</ele>
        <time>2020-03-19T19:09:36Z</time>
      </trkpt>
      <trkpt lat="57.037092183587" lon="14.958794128627">
        <ele>202.4</ele>
        <time>2020-03-19T19:09:39Z</time>
      </trkpt>
      <trkpt lat="57.03714222353" lon="14.95855164026">
        <ele>202.6</ele>
        <time>2020-03-19T19:09:44Z</time>
      </trkpt>
      <trkpt lat="57.03717742751" lon="14.958198678451">
        <ele>202.6</ele>
        <time>2020-03-19T19:09:52Z</time>
      </trkpt>
      <trkpt lat="57.037190670912" lon="14.957923081579">
        <ele>201.2</ele>
        <time>2020-03-19T19:09:58Z</time>
      </trkpt>
      <trkpt lat="57.03720089683" lon="14.957845716642">
        <ele>199.8</ele>
        <time>2020-03-19T19:10:00Z</time>
      </trkpt>
      <trkpt lat="57.037202489391" lon="14.95775619795">
        <ele>198.2</ele>
        <time>2020-03-19T19:10:02Z</time>
      </trkpt>
      <trkpt lat="57.037201399744" lon="14.95766315886">
        <ele>196.8</ele>
        <time>2020-03-19T19:10:04Z</time>
      </trkpt>
      <trkpt lat="57.037175583492" lon="14.957525108967">
        <ele>195</ele>
        <time>2020-03-19T19:10:06Z</time>
      </trkpt>
      <trkpt lat="57.037152030353" lon="14.957405080159">
        <ele>193.6</ele>
        <time>2020-03-19T19:10:08Z</time>
      </trkpt>
      <trkpt lat="57.037117664563" lon="14.95730106078">
        <ele>193.4</ele>
        <time>2020-03-19T19:10:10Z</time>
      </trkpt>
      <trkpt lat="57.037119257124" lon="14.95715270115">
        <ele>193.2</ele>
        <time>2020-03-19T19:10:20Z</time>
      </trkpt>
      <trkpt lat="57.037129063947" lon="14.957076342041">
        <ele>192.8</ele>
        <time>2020-03-19T19:10:23Z</time>
      </trkpt>
      <trkpt lat="57.037135098915" lon="14.957052705083">
        <ele>192.6</ele>
        <time>2020-03-19T19:10:24Z</time>
      </trkpt>
      <trkpt lat="57.037141972073" lon="14.957023871347">
        <ele>192.4</ele>
        <time>2020-03-19T19:10:25Z</time>
      </trkpt>
      <trkpt lat="57.037219923743" lon="14.956704101862">
        <ele>192</ele>
        <time>2020-03-19T19:10:34Z</time>
      </trkpt>
      <trkpt lat="57.037160831348" lon="14.956361785066">
        <ele>192</ele>
        <time>2020-03-19T19:10:40Z</time>
      </trkpt>
      <trkpt lat="57.037170302895" lon="14.956144945313">
        <ele>191.6</ele>
        <time>2020-03-19T19:10:48Z</time>
      </trkpt>
      <trkpt lat="57.037252613153" lon="14.955807070924">
        <ele>192</ele>
        <time>2020-03-19T19:10:57Z</time>
      </trkpt>
      <trkpt lat="57.037198968993" lon="14.955482859032">
        <ele>191.2</ele>
        <time>2020-03-19T19:11:07Z</time>
      </trkpt>
      <trkpt lat="57.037156137484" lon="14.95537657654">
        <ele>190.6</ele>
        <time>2020-03-19T19:11:10Z</time>
      </trkpt>
      <trkpt lat="57.03711204869" lon="14.955241208855">
        <ele>189.4</ele>
        <time>2020-03-19T19:11:14Z</time>
      </trkpt>
      <trkpt lat="57.03710450498" lon="14.955010371329">
        <ele>188.6</ele>
        <time>2020-03-19T19:11:22Z</time>
      </trkpt>
      <trkpt lat="57.037071228837" lon="14.954863352803">
        <ele>188.6</ele>
        <time>2020-03-19T19:11:26Z</time>
      </trkpt>
      <trkpt lat="57.037040551083" lon="14.954650033448">
        <ele>190</ele>
        <time>2020-03-19T19:11:33Z</time>
      </trkpt>
      <trkpt lat="57.037044490576" lon="14.954600747876">
        <ele>190.4</ele>
        <time>2020-03-19T19:11:35Z</time>
      </trkpt>
      <trkpt lat="57.036981374869" lon="14.954254910682">
        <ele>190.2</ele>
        <time>2020-03-19T19:11:43Z</time>
      </trkpt>
      <trkpt lat="57.036981626326" lon="14.954011835582">
        <ele>189.8</ele>
        <time>2020-03-19T19:11:50Z</time>
      </trkpt>
      <trkpt lat="57.03693016146" lon="14.953781920065">
        <ele>191</ele>
        <time>2020-03-19T19:11:57Z</time>
      </trkpt>
      <trkpt lat="57.036905518674" lon="14.953736993081">
        <ele>190.8</ele>
        <time>2020-03-19T19:12:01Z</time>
      </trkpt>
      <trkpt lat="57.036816754353" lon="14.953715619236">
        <ele>190.6</ele>
        <time>2020-03-19T19:12:24Z</time>
      </trkpt>
      <trkpt lat="57.036793368852" lon="14.953694496848">
        <ele>190.6</ele>
        <time>2020-03-19T19:12:26Z</time>
      </trkpt>
      <trkpt lat="57.036762439641" lon="14.95366918351">
        <ele>190</ele>
        <time>2020-03-19T19:12:29Z</time>
      </trkpt>
      <trkpt lat="57.036737629217" lon="14.953666166026">
        <ele>189.4</ele>
        <time>2020-03-19T19:12:31Z</time>
      </trkpt>
      <trkpt lat="57.036727906213" lon="14.953665746931">
        <ele>189.2</ele>
        <time>2020-03-19T19:12:32Z</time>
      </trkpt>
      <trkpt lat="57.036705358902" lon="14.953641858516">
        <ele>188.4</ele>
        <time>2020-03-19T19:12:37Z</time>
      </trkpt>
      <trkpt lat="57.036673507682" lon="14.953600871025">
        <ele>188</ele>
        <time>2020-03-19T19:12:41Z</time>
      </trkpt>
      <trkpt lat="57.036507881338" lon="14.953430047903">
        <ele>187.8</ele>
        <time>2020-03-19T19:12:50Z</time>
      </trkpt>
      <trkpt lat="57.036343847555" lon="14.953310019095">
        <ele>188.2</ele>
        <time>2020-03-19T19:12:58Z</time>
      </trkpt>
      <trkpt lat="57.036287856463" lon="14.953212789055">
        <ele>187.4</ele>
        <time>2020-03-19T19:13:03Z</time>
      </trkpt>
      <trkpt lat="57.03625793308" lon="14.953107512391">
        <ele>186.2</ele>
        <time>2020-03-19T19:13:07Z</time>
      </trkpt>
      <trkpt lat="57.036249299723" lon="14.953089323668">
        <ele>185.8</ele>
        <time>2020-03-19T19:13:08Z</time>
      </trkpt>
      <trkpt lat="57.03623027281" lon="14.953069374746">
        <ele>185.2</ele>
        <time>2020-03-19T19:13:10Z</time>
      </trkpt>
      <trkpt lat="57.036228428792" lon="14.953059987018">
        <ele>184.8</ele>
        <time>2020-03-19T19:13:11Z</time>
      </trkpt>
      <trkpt lat="57.036179813772" lon="14.952976335656">
        <ele>184.2</ele>
        <time>2020-03-19T19:13:17Z</time>
      </trkpt>
      <trkpt lat="57.036153243149" lon="14.952922691496">
        <ele>184.2</ele>
        <time>2020-03-19T19:13:21Z</time>
      </trkpt>
      <trkpt lat="57.036114770228" lon="14.952897545796">
        <ele>184.2</ele>
        <time>2020-03-19T19:13:24Z</time>
      </trkpt>
      <trkpt lat="57.036068753597" lon="14.952869801707">
        <ele>184.4</ele>
        <time>2020-03-19T19:13:26Z</time>
      </trkpt>
      <trkpt lat="57.036015612351" lon="14.952864018196">
        <ele>184.8</ele>
        <time>2020-03-19T19:13:29Z</time>
      </trkpt>
      <trkpt lat="57.035967667883" lon="14.952830742053">
        <ele>185.4</ele>
        <time>2020-03-19T19:13:33Z</time>
      </trkpt>
      <trkpt lat="57.035953418653" lon="14.952799729023">
        <ele>185.6</ele>
        <time>2020-03-19T19:13:35Z</time>
      </trkpt>
      <trkpt lat="57.035947551323" lon="14.952758825351">
        <ele>185.6</ele>
        <time>2020-03-19T19:13:37Z</time>
      </trkpt>
      <trkpt lat="57.035897343742" lon="14.952656314714">
        <ele>185</ele>
        <time>2020-03-19T19:13:42Z</time>
      </trkpt>
      <trkpt lat="57.035880160847" lon="14.95262982791">
        <ele>184.4</ele>
        <time>2020-03-19T19:13:44Z</time>
      </trkpt>
      <trkpt lat="57.035867085083" lon="14.952582805451">
        <ele>183.6</ele>
        <time>2020-03-19T19:13:46Z</time>
      </trkpt>
      <trkpt lat="57.035861804486" lon="14.952564700547">
        <ele>183.4</ele>
        <time>2020-03-19T19:13:47Z</time>
      </trkpt>
      <trkpt lat="57.035863564685" lon="14.952523880694">
        <ele>183</ele>
        <time>2020-03-19T19:13:51Z</time>
      </trkpt>
      <trkpt lat="57.035861133934" lon="14.952498734994">
        <ele>183</ele>
        <time>2020-03-19T19:13:53Z</time>
      </trkpt>
      <trkpt lat="57.035864738151" lon="14.952474846579">
        <ele>183</ele>
        <time>2020-03-19T19:13:55Z</time>
      </trkpt>
      <trkpt lat="57.035833557483" lon="14.952367809716">
        <ele>182.4</ele>
        <time>2020-03-19T19:13:59Z</time>
      </trkpt>
      <trkpt lat="57.035848561084" lon="14.952351213554">
        <ele>182.4</ele>
        <time>2020-03-19T19:14:01Z</time>
      </trkpt>
      <trkpt lat="57.035867001264" lon="14.952339730351">
        <ele>182.6</ele>
        <time>2020-03-19T19:14:03Z</time>
      </trkpt>
      <trkpt lat="57.035870437843" lon="14.952310896615">
        <ele>182.6</ele>
        <time>2020-03-19T19:14:05Z</time>
      </trkpt>
      <trkpt lat="57.035874628793" lon="14.952295893014">
        <ele>182.8</ele>
        <time>2020-03-19T19:14:07Z</time>
      </trkpt>
      <trkpt lat="57.03588912948" lon="14.95227275897">
        <ele>182.8</ele>
        <time>2020-03-19T19:14:09Z</time>
      </trkpt>
      <trkpt lat="57.035855098966" lon="14.952132697421">
        <ele>182.8</ele>
        <time>2020-03-19T19:14:13Z</time>
      </trkpt>
      <trkpt lat="57.035849063998" lon="14.951960533195">
        <ele>181.8</ele>
        <time>2020-03-19T19:14:25Z</time>
      </trkpt>
      <trkpt lat="57.035837580795" lon="14.951861123861">
        <ele>181.4</ele>
        <time>2020-03-19T19:14:28Z</time>
      </trkpt>
      <trkpt lat="57.035767256654" lon="14.951734305714">
        <ele>181.2</ele>
        <time>2020-03-19T19:14:31Z</time>
      </trkpt>
      <trkpt lat="57.035713193399" lon="14.951720559398">
        <ele>181.4</ele>
        <time>2020-03-19T19:14:36Z</time>
      </trkpt>
      <trkpt lat="57.035626943648" lon="14.951634309647">
        <ele>182</ele>
        <time>2020-03-19T19:14:51Z</time>
      </trkpt>
      <trkpt lat="57.035587800175" lon="14.951644787022">
        <ele>181.2</ele>
        <time>2020-03-19T19:14:55Z</time>
      </trkpt>
      <trkpt lat="57.035503478261" lon="14.951645289936">
        <ele>180.6</ele>
        <time>2020-03-19T19:15:01Z</time>
      </trkpt>
      <trkpt lat="57.035487049737" lon="14.951643948832">
        <ele>181</ele>
        <time>2020-03-19T19:15:03Z</time>
      </trkpt>
      <trkpt lat="57.035477242914" lon="14.95165668932">
        <ele>181.2</ele>
        <time>2020-03-19T19:15:05Z</time>
      </trkpt>
      <trkpt lat="57.035472968145" lon="14.951789039521">
        <ele>181</ele>
        <time>2020-03-19T19:15:25Z</time>
      </trkpt>
      <trkpt lat="57.035456455802" lon="14.951911079985">
        <ele>181</ele>
        <time>2020-03-19T19:15:31Z</time>
      </trkpt>
      <trkpt lat="57.035466346444" lon="14.951977129357">
        <ele>181.8</ele>
        <time>2020-03-19T19:15:34Z</time>
      </trkpt>
      <trkpt lat="57.035472381412" lon="14.952121968589">
        <ele>182.4</ele>
        <time>2020-03-19T19:15:38Z</time>
      </trkpt>
      <trkpt lat="57.035491240687" lon="14.952313997918">
        <ele>183.6</ele>
        <time>2020-03-19T19:15:43Z</time>
      </trkpt>
      <trkpt lat="57.035514710007" lon="14.952414329261">
        <ele>184.8</ele>
        <time>2020-03-19T19:15:47Z</time>
      </trkpt>
      <trkpt lat="57.035522086079" lon="14.952462273729">
        <ele>185.4</ele>
        <time>2020-03-19T19:15:49Z</time>
      </trkpt>
      <trkpt lat="57.035534658929" lon="14.952514576785">
        <ele>186</ele>
        <time>2020-03-19T19:15:51Z</time>
      </trkpt>
      <trkpt lat="57.035544214295" lon="14.952633013032">
        <ele>187.2</ele>
        <time>2020-03-19T19:15:55Z</time>
      </trkpt>
      <trkpt lat="57.0355437952" lon="14.952663271691">
        <ele>187.4</ele>
        <time>2020-03-19T19:15:56Z</time>
      </trkpt>
      <trkpt lat="57.035548656702" lon="14.952720687706">
        <ele>188.2</ele>
        <time>2020-03-19T19:15:58Z</time>
      </trkpt>
      <trkpt lat="57.035544801028" lon="14.952802075955">
        <ele>189.4</ele>
        <time>2020-03-19T19:16:01Z</time>
      </trkpt>
      <trkpt lat="57.035559804629" lon="14.952954542716">
        <ele>190.6</ele>
        <time>2020-03-19T19:16:06Z</time>
      </trkpt>
      <trkpt lat="57.035573299488" lon="14.953099549586">
        <ele>191.6</ele>
        <time>2020-03-19T19:16:11Z</time>
      </trkpt>
      <trkpt lat="57.035590817659" lon="14.953193007771">
        <ele>191.8</ele>
        <time>2020-03-19T19:16:15Z</time>
      </trkpt>
      <trkpt lat="57.035584615053" lon="14.953322256669">
        <ele>192</ele>
        <time>2020-03-19T19:16:21Z</time>
      </trkpt>
      <trkpt lat="57.035569946728" lon="14.953419319071">
        <ele>190.8</ele>
        <time>2020-03-19T19:16:26Z</time>
      </trkpt>
      <trkpt lat="57.035565923416" lon="14.953442620753">
        <ele>190.6</ele>
        <time>2020-03-19T19:16:27Z</time>
      </trkpt>
      <trkpt lat="57.035561816285" lon="14.953472879412">
        <ele>190.4</ele>
        <time>2020-03-19T19:16:28Z</time>
      </trkpt>
      <trkpt lat="57.035556954783" lon="14.95359039365">
        <ele>189</ele>
        <time>2020-03-19T19:16:32Z</time>
      </trkpt>
      <trkpt lat="57.035555026946" lon="14.953642026154">
        <ele>187.8</ele>
        <time>2020-03-19T19:16:34Z</time>
      </trkpt>
      <trkpt lat="57.035558463525" lon="14.953665998388">
        <ele>187.2</ele>
        <time>2020-03-19T19:16:36Z</time>
      </trkpt>
      <trkpt lat="57.035560475181" lon="14.953703633119">
        <ele>187</ele>
        <time>2020-03-19T19:16:40Z</time>
      </trkpt>
      <trkpt lat="57.035570952556" lon="14.953800527883">
        <ele>186.8</ele>
        <time>2020-03-19T19:16:45Z</time>
      </trkpt>
      <trkpt lat="57.035620489585" lon="14.95386867273">
        <ele>187.4</ele>
        <time>2020-03-19T19:16:49Z</time>
      </trkpt>
      <trkpt lat="57.035662399085" lon="14.953945618572">
        <ele>188.4</ele>
        <time>2020-03-19T19:16:54Z</time>
      </trkpt>
      <trkpt lat="57.035658878687" lon="14.954037819472">
        <ele>188.4</ele>
        <time>2020-03-19T19:16:58Z</time>
      </trkpt>
      <trkpt lat="57.035644713276" lon="14.954106215776">
        <ele>186.6</ele>
        <time>2020-03-19T19:17:05Z</time>
      </trkpt>
      <trkpt lat="57.035640941421" lon="14.954247702248">
        <ele>186.4</ele>
        <time>2020-03-19T19:17:10Z</time>
      </trkpt>
      <trkpt lat="57.035604899251" lon="14.954365467943">
        <ele>186.2</ele>
        <time>2020-03-19T19:17:15Z</time>
      </trkpt>
      <trkpt lat="57.035570868737" lon="14.954451633875">
        <ele>186.2</ele>
        <time>2020-03-19T19:17:19Z</time>
      </trkpt>
      <trkpt lat="57.03554295701" lon="14.954505361854">
        <ele>186.2</ele>
        <time>2020-03-19T19:17:22Z</time>
      </trkpt>
      <trkpt lat="57.035527115219" lon="14.954583062067">
        <ele>186.4</ele>
        <time>2020-03-19T19:17:24Z</time>
      </trkpt>
      <trkpt lat="57.035518062767" lon="14.954619774789">
        <ele>186.6</ele>
        <time>2020-03-19T19:17:26Z</time>
      </trkpt>
      <trkpt lat="57.035496437465" lon="14.954638466426">
        <ele>186.6</ele>
        <time>2020-03-19T19:17:28Z</time>
      </trkpt>
      <trkpt lat="57.035459892381" lon="14.954699067563">
        <ele>186.8</ele>
        <time>2020-03-19T19:17:32Z</time>
      </trkpt>
      <trkpt lat="57.035449498825" lon="14.954737121389">
        <ele>186.8</ele>
        <time>2020-03-19T19:17:34Z</time>
      </trkpt>
      <trkpt lat="57.03544656516" lon="14.954776348681">
        <ele>186.8</ele>
        <time>2020-03-19T19:17:37Z</time>
      </trkpt>
      <trkpt lat="57.035452264852" lon="14.954812726127">
        <ele>186.4</ele>
        <time>2020-03-19T19:17:40Z</time>
      </trkpt>
      <trkpt lat="57.035451426662" lon="14.954840721673">
        <ele>185.6</ele>
        <time>2020-03-19T19:17:44Z</time>
      </trkpt>
      <trkpt lat="57.035431645378" lon="14.954866286468">
        <ele>185.2</ele>
        <time>2020-03-19T19:17:48Z</time>
      </trkpt>
      <trkpt lat="57.035413372836" lon="14.954884726648">
        <ele>185</ele>
        <time>2020-03-19T19:17:51Z</time>
      </trkpt>
      <trkpt lat="57.035393591552" lon="14.954951530391">
        <ele>184.8</ele>
        <time>2020-03-19T19:17:55Z</time>
      </trkpt>
      <trkpt lat="57.035383868548" lon="14.954967288363">
        <ele>184.8</ele>
        <time>2020-03-19T19:17:59Z</time>
      </trkpt>
      <trkpt lat="57.035380599607" lon="14.954980280308">
        <ele>184.6</ele>
        <time>2020-03-19T19:18:01Z</time>
      </trkpt>
      <trkpt lat="57.035387305127" lon="14.954997630841">
        <ele>184.4</ele>
        <time>2020-03-19T19:18:02Z</time>
      </trkpt>
      <trkpt lat="57.035393423914" lon="14.955047335508">
        <ele>184.4</ele>
        <time>2020-03-19T19:18:05Z</time>
      </trkpt>
      <trkpt lat="57.035413205198" lon="14.955101566401">
        <ele>184.6</ele>
        <time>2020-03-19T19:18:08Z</time>
      </trkpt>
      <trkpt lat="57.035418485795" lon="14.9551284723">
        <ele>184.8</ele>
        <time>2020-03-19T19:18:11Z</time>
      </trkpt>
      <trkpt lat="57.035365679825" lon="14.955198377346">
        <ele>185</ele>
        <time>2020-03-19T19:18:25Z</time>
      </trkpt>
      <trkpt lat="57.035344641256" lon="14.95522570234">
        <ele>185</ele>
        <time>2020-03-19T19:18:27Z</time>
      </trkpt>
      <trkpt lat="57.035315639882" lon="14.955244729253">
        <ele>184.4</ele>
        <time>2020-03-19T19:18:31Z</time>
      </trkpt>
      <trkpt lat="57.035281609368" lon="14.95529443392">
        <ele>184.4</ele>
        <time>2020-03-19T19:18:40Z</time>
      </trkpt>
      <trkpt lat="57.035233161986" lon="14.955170214162">
        <ele>183.4</ele>
        <time>2020-03-19T19:19:16Z</time>
      </trkpt>
      <trkpt lat="57.035238777859" lon="14.954977179005">
        <ele>184</ele>
        <time>2020-03-19T19:19:36Z</time>
      </trkpt>
      <trkpt lat="57.035250596338" lon="14.95494909964">
        <ele>183.6</ele>
        <time>2020-03-19T19:19:38Z</time>
      </trkpt>
      <trkpt lat="57.035210027942" lon="14.954854300351">
        <ele>183.2</ele>
        <time>2020-03-19T19:19:44Z</time>
      </trkpt>
      <trkpt lat="57.035162586388" lon="14.954815324516">
        <ele>183.2</ele>
        <time>2020-03-19T19:19:49Z</time>
      </trkpt>
      <trkpt lat="57.035145235855" lon="14.954812307032">
        <ele>183.2</ele>
        <time>2020-03-19T19:19:52Z</time>
      </trkpt>
      <trkpt lat="57.035116150662" lon="14.954804344227">
        <ele>183.2</ele>
        <time>2020-03-19T19:19:57Z</time>
      </trkpt>
      <trkpt lat="57.035101985251" lon="14.95478229983">
        <ele>183.2</ele>
        <time>2020-03-19T19:19:59Z</time>
      </trkpt>
      <trkpt lat="57.035058650828" lon="14.954729661498">
        <ele>183</ele>
        <time>2020-03-19T19:20:03Z</time>
      </trkpt>
      <trkpt lat="57.035020513183" lon="14.954727733661">
        <ele>183.2</ele>
        <time>2020-03-19T19:20:06Z</time>
      </trkpt>
      <trkpt lat="57.035007185962" lon="14.95475799232">
        <ele>183.4</ele>
        <time>2020-03-19T19:20:08Z</time>
      </trkpt>
      <trkpt lat="57.035043647227" lon="14.954840721673">
        <ele>183.6</ele>
        <time>2020-03-19T19:20:12Z</time>
      </trkpt>
      <trkpt lat="57.035045155969" lon="14.954853713618">
        <ele>183.6</ele>
        <time>2020-03-19T19:20:13Z</time>
      </trkpt>
      <trkpt lat="57.035049682195" lon="14.954895706937">
        <ele>183.4</ele>
        <time>2020-03-19T19:20:16Z</time>
      </trkpt>
      <trkpt lat="57.03504507215" lon="14.954983968344">
        <ele>182.8</ele>
        <time>2020-03-19T19:20:22Z</time>
      </trkpt>
      <trkpt lat="57.035033002214" lon="14.954986566733">
        <ele>182.8</ele>
        <time>2020-03-19T19:20:25Z</time>
      </trkpt>
      <trkpt lat="57.035030990558" lon="14.955017915039">
        <ele>182.4</ele>
        <time>2020-03-19T19:20:28Z</time>
      </trkpt>
      <trkpt lat="57.035050604204" lon="14.954921187913">
        <ele>182.6</ele>
        <time>2020-03-19T19:20:35Z</time>
      </trkpt>
      <trkpt lat="57.035035935879" lon="14.954785568771">
        <ele>183.4</ele>
        <time>2020-03-19T19:20:39Z</time>
      </trkpt>
      <trkpt lat="57.035046832349" lon="14.954732595163">
        <ele>183.4</ele>
        <time>2020-03-19T19:20:41Z</time>
      </trkpt>
      <trkpt lat="57.035055800982" lon="14.954704599617">
        <ele>183.6</ele>
        <time>2020-03-19T19:20:42Z</time>
      </trkpt>
      <trkpt lat="57.03506183595" lon="14.95462891106">
        <ele>183.8</ele>
        <time>2020-03-19T19:20:45Z</time>
      </trkpt>
      <trkpt lat="57.035070301669" lon="14.954605693197">
        <ele>183.8</ele>
        <time>2020-03-19T19:20:48Z</time>
      </trkpt>
      <trkpt lat="57.035053202593" lon="14.954452555884">
        <ele>183.8</ele>
        <time>2020-03-19T19:21:04Z</time>
      </trkpt>
      <trkpt lat="57.035078180655" lon="14.954411652212">
        <ele>184.2</ele>
        <time>2020-03-19T19:21:07Z</time>
      </trkpt>
      <trkpt lat="57.035117072671" lon="14.954313248706">
        <ele>184.8</ele>
        <time>2020-03-19T19:21:12Z</time>
      </trkpt>
      <trkpt lat="57.035158982171" lon="14.954294389431">
        <ele>185.2</ele>
        <time>2020-03-19T19:21:15Z</time>
      </trkpt>
      <trkpt lat="57.035190833391" lon="14.954265723333">
        <ele>185.8</ele>
        <time>2020-03-19T19:21:18Z</time>
      </trkpt>
      <trkpt lat="57.035202065137" lon="14.954258514899">
        <ele>185.8</ele>
        <time>2020-03-19T19:21:20Z</time>
      </trkpt>
      <trkpt lat="57.035330643483" lon="14.954173690071">
        <ele>186.6</ele>
        <time>2020-03-19T19:21:56Z</time>
      </trkpt>
      <trkpt lat="57.035381689254" lon="14.954093391469">
        <ele>185.8</ele>
        <time>2020-03-19T19:22:39Z</time>
      </trkpt>
      <trkpt lat="57.035357465563" lon="14.954177713383">
        <ele>186.8</ele>
        <time>2020-03-19T19:22:50Z</time>
      </trkpt>
      <trkpt lat="57.035426783876" lon="14.954402348303">
        <ele>187.4</ele>
        <time>2020-03-19T19:23:14Z</time>
      </trkpt>
      <trkpt lat="57.035497946207" lon="14.954707533282">
        <ele>187.4</ele>
        <time>2020-03-19T19:23:26Z</time>
      </trkpt>
      <trkpt lat="57.035496772741" lon="14.954953374409">
        <ele>187.4</ele>
        <time>2020-03-19T19:23:41Z</time>
      </trkpt>
      <trkpt lat="57.035536000033" lon="14.955031912812">
        <ele>188</ele>
        <time>2020-03-19T19:23:59Z</time>
      </trkpt>
      <trkpt lat="57.035530887074" lon="14.955212458938">
        <ele>186.8</ele>
        <time>2020-03-19T19:24:18Z</time>
      </trkpt>
      <trkpt lat="57.03547171086" lon="14.955366266803">
        <ele>186.2</ele>
        <time>2020-03-19T19:24:28Z</time>
      </trkpt>
      <trkpt lat="57.035409349524" lon="14.955447487414">
        <ele>186.2</ele>
        <time>2020-03-19T19:24:34Z</time>
      </trkpt>
      <trkpt lat="57.035369703137" lon="14.955482607575">
        <ele>186.2</ele>
        <time>2020-03-19T19:24:38Z</time>
      </trkpt>
      <trkpt lat="57.035336510813" lon="14.955489648371">
        <ele>186.6</ele>
        <time>2020-03-19T19:24:41Z</time>
      </trkpt>
      <trkpt lat="57.035329050922" lon="14.955497946452">
        <ele>186.6</ele>
        <time>2020-03-19T19:24:43Z</time>
      </trkpt>
      <trkpt lat="57.035314382597" lon="14.955561732711">
        <ele>185.6</ele>
        <time>2020-03-19T19:24:50Z</time>
      </trkpt>
      <trkpt lat="57.035360315409" lon="14.955593248655">
        <ele>184.6</ele>
        <time>2020-03-19T19:24:59Z</time>
      </trkpt>
      <trkpt lat="57.035337432822" lon="14.955566594213">
        <ele>184.6</ele>
        <time>2020-03-19T19:25:10Z</time>
      </trkpt>
      <trkpt lat="57.035394932656" lon="14.955428963415">
        <ele>185.4</ele>
        <time>2020-03-19T19:25:23Z</time>
      </trkpt>
      <trkpt lat="57.035418653433" lon="14.955389903761">
        <ele>185.4</ele>
        <time>2020-03-19T19:25:26Z</time>
      </trkpt>
      <trkpt lat="57.035437009794" lon="14.955366182984">
        <ele>185.6</ele>
        <time>2020-03-19T19:25:28Z</time>
      </trkpt>
      <trkpt lat="57.035457377811" lon="14.955359645102">
        <ele>185.6</ele>
        <time>2020-03-19T19:25:29Z</time>
      </trkpt>
      <trkpt lat="57.035474057792" lon="14.955309269883">
        <ele>185.8</ele>
        <time>2020-03-19T19:25:31Z</time>
      </trkpt>
      <trkpt lat="57.035600373025" lon="14.95514188334">
        <ele>186.8</ele>
        <time>2020-03-19T19:25:40Z</time>
      </trkpt>
      <trkpt lat="57.035622082146" lon="14.955128639938">
        <ele>187</ele>
        <time>2020-03-19T19:25:43Z</time>
      </trkpt>
      <trkpt lat="57.035666254759" lon="14.955124784264">
        <ele>187.2</ele>
        <time>2020-03-19T19:25:45Z</time>
      </trkpt>
      <trkpt lat="57.035697938341" lon="14.955119084572">
        <ele>187.4</ele>
        <time>2020-03-19T19:25:47Z</time>
      </trkpt>
      <trkpt lat="57.035795671295" lon="14.95506644624">
        <ele>187.2</ele>
        <time>2020-03-19T19:25:52Z</time>
      </trkpt>
      <trkpt lat="57.035892566059" lon="14.95495915792">
        <ele>187</ele>
        <time>2020-03-19T19:26:02Z</time>
      </trkpt>
      <trkpt lat="57.035911844429" lon="14.954952368581">
        <ele>187</ele>
        <time>2020-03-19T19:26:05Z</time>
      </trkpt>
      <trkpt lat="57.035928943505" lon="14.95490802833">
        <ele>187</ele>
        <time>2020-03-19T19:26:09Z</time>
      </trkpt>
      <trkpt lat="57.036007146632" lon="14.954857401654">
        <ele>187.2</ele>
        <time>2020-03-19T19:26:18Z</time>
      </trkpt>
      <trkpt lat="57.036069507968" lon="14.954841978958">
        <ele>187.4</ele>
        <time>2020-03-19T19:26:22Z</time>
      </trkpt>
      <trkpt lat="57.036165229266" lon="14.954756064483">
        <ele>187.8</ele>
        <time>2020-03-19T19:26:28Z</time>
      </trkpt>
      <trkpt lat="57.036241085461" lon="14.954670569103">
        <ele>187.8</ele>
        <time>2020-03-19T19:26:34Z</time>
      </trkpt>
      <trkpt lat="57.036437054283" lon="14.954565460077">
        <ele>187.8</ele>
        <time>2020-03-19T19:26:41Z</time>
      </trkpt>
      <trkpt lat="57.036581055325" lon="14.954321798244">
        <ele>188.8</ele>
        <time>2020-03-19T19:26:48Z</time>
      </trkpt>
      <trkpt lat="57.036643249023" lon="14.954199087228">
        <ele>188.8</ele>
        <time>2020-03-19T19:26:52Z</time>
      </trkpt>
      <trkpt lat="57.036692869871" lon="14.954112753658">
        <ele>189</ele>
        <time>2020-03-19T19:26:56Z</time>
      </trkpt>
      <trkpt lat="57.03678766916" lon="14.954047542476">
        <ele>190</ele>
        <time>2020-03-19T19:27:01Z</time>
      </trkpt>
      <trkpt lat="57.036882803725" lon="14.953880239752">
        <ele>190.8</ele>
        <time>2020-03-19T19:27:07Z</time>
      </trkpt>
      <trkpt lat="57.036881630259" lon="14.953843862306">
        <ele>191</ele>
        <time>2020-03-19T19:27:08Z</time>
      </trkpt>
      <trkpt lat="57.036869308866" lon="14.953722576213">
        <ele>191.4</ele>
        <time>2020-03-19T19:27:12Z</time>
      </trkpt>
      <trkpt lat="57.03686981178" lon="14.953705560956">
        <ele>190.4</ele>
        <time>2020-03-19T19:27:14Z</time>
      </trkpt>
      <trkpt lat="57.036814994154" lon="14.953671195166">
        <ele>190</ele>
        <time>2020-03-19T19:27:37Z</time>
      </trkpt>
      <trkpt lat="57.036878528956" lon="14.953689719165">
        <ele>189.8</ele>
        <time>2020-03-19T19:27:49Z</time>
      </trkpt>
      <trkpt lat="57.036924126492" lon="14.953686450224">
        <ele>189.8</ele>
        <time>2020-03-19T19:27:52Z</time>
      </trkpt>
      <trkpt lat="57.036945332699" lon="14.953672955365">
        <ele>189.8</ele>
        <time>2020-03-19T19:27:54Z</time>
      </trkpt>
      <trkpt lat="57.03697374734" lon="14.953626268182">
        <ele>188.6</ele>
        <time>2020-03-19T19:27:58Z</time>
      </trkpt>
      <trkpt lat="57.036993696262" lon="14.953596847713">
        <ele>188</ele>
        <time>2020-03-19T19:28:00Z</time>
      </trkpt>
      <trkpt lat="57.037000066506" lon="14.953592824401">
        <ele>187.6</ele>
        <time>2020-03-19T19:28:01Z</time>
      </trkpt>
      <trkpt lat="57.037025128387" lon="14.953566253778">
        <ele>186.4</ele>
        <time>2020-03-19T19:28:04Z</time>
      </trkpt>
      <trkpt lat="57.037034516115" lon="14.953536162757">
        <ele>186</ele>
        <time>2020-03-19T19:28:06Z</time>
      </trkpt>
      <trkpt lat="57.037038707065" lon="14.95348813447">
        <ele>185</ele>
        <time>2020-03-19T19:28:09Z</time>
      </trkpt>
      <trkpt lat="57.037042227463" lon="14.953457875811">
        <ele>184.4</ele>
        <time>2020-03-19T19:28:11Z</time>
      </trkpt>
      <trkpt lat="57.037051531372" lon="14.953426695143">
        <ele>184</ele>
        <time>2020-03-19T19:28:14Z</time>
      </trkpt>
      <trkpt lat="57.03708690299" lon="14.953361903056">
        <ele>184</ele>
        <time>2020-03-19T19:28:18Z</time>
      </trkpt>
      <trkpt lat="57.037093440872" lon="14.953345977446">
        <ele>184</ele>
        <time>2020-03-19T19:28:19Z</time>
      </trkpt>
      <trkpt lat="57.037140882426" lon="14.953310102914">
        <ele>183.6</ele>
        <time>2020-03-19T19:28:24Z</time>
      </trkpt>
      <trkpt lat="57.037210452196" lon="14.953261068799">
        <ele>183.2</ele>
        <time>2020-03-19T19:28:29Z</time>
      </trkpt>
      <trkpt lat="57.037236352267" lon="14.95323248652">
        <ele>183.4</ele>
        <time>2020-03-19T19:28:31Z</time>
      </trkpt>
      <trkpt lat="57.037277507396" lon="14.953136849041">
        <ele>183.4</ele>
        <time>2020-03-19T19:28:36Z</time>
      </trkpt>
      <trkpt lat="57.037398625851" lon="14.953115475196">
        <ele>183.6</ele>
        <time>2020-03-19T19:28:43Z</time>
      </trkpt>
      <trkpt lat="57.03747917591" lon="14.953090580953">
        <ele>184.8</ele>
        <time>2020-03-19T19:28:48Z</time>
      </trkpt>
      <trkpt lat="57.03748504324" lon="14.953086809098">
        <ele>185.2</ele>
        <time>2020-03-19T19:28:49Z</time>
      </trkpt>
      <trkpt lat="57.037552349897" lon="14.953097454111">
        <ele>185.4</ele>
        <time>2020-03-19T19:28:53Z</time>
      </trkpt>
      <trkpt lat="57.037579842529" lon="14.953115810472">
        <ele>185.4</ele>
        <time>2020-03-19T19:28:55Z</time>
      </trkpt>
      <trkpt lat="57.037628792825" lon="14.953204993888">
        <ele>185.6</ele>
        <time>2020-03-19T19:28:59Z</time>
      </trkpt>
      <trkpt lat="57.037681850252" lon="14.953244556456">
        <ele>185.8</ele>
        <time>2020-03-19T19:29:02Z</time>
      </trkpt>
      <trkpt lat="57.037700960984" lon="14.953282442644">
        <ele>186.4</ele>
        <time>2020-03-19T19:29:04Z</time>
      </trkpt>
      <trkpt lat="57.03771386911" lon="14.953306079602">
        <ele>186.6</ele>
        <time>2020-03-19T19:29:06Z</time>
      </trkpt>
      <trkpt lat="57.037822582353" lon="14.953430718455">
        <ele>187</ele>
        <time>2020-03-19T19:29:17Z</time>
      </trkpt>
      <trkpt lat="57.037858540704" lon="14.953497103103">
        <ele>186.6</ele>
        <time>2020-03-19T19:29:21Z</time>
      </trkpt>
      <trkpt lat="57.037873544305" lon="14.953570025633">
        <ele>186.6</ele>
        <time>2020-03-19T19:29:24Z</time>
      </trkpt>
      <trkpt lat="57.037873711943" lon="14.953658957592">
        <ele>186.8</ele>
        <time>2020-03-19T19:29:27Z</time>
      </trkpt>
      <trkpt lat="57.037912603959" lon="14.953903373796">
        <ele>186.4</ele>
        <time>2020-03-19T19:29:35Z</time>
      </trkpt>
      <trkpt lat="57.037928864845" lon="14.953987528072">
        <ele>186.2</ele>
        <time>2020-03-19T19:29:38Z</time>
      </trkpt>
      <trkpt lat="57.037944203722" lon="14.95414276086">
        <ele>185.2</ele>
        <time>2020-03-19T19:29:42Z</time>
      </trkpt>
      <trkpt lat="57.037974043286" lon="14.954248791895">
        <ele>184.4</ele>
        <time>2020-03-19T19:29:48Z</time>
      </trkpt>
      <trkpt lat="57.037979323883" lon="14.954397151525">
        <ele>184.4</ele>
        <time>2020-03-19T19:29:56Z</time>
      </trkpt>
      <trkpt lat="57.037998434615" lon="14.954519359627">
        <ele>184.2</ele>
        <time>2020-03-19T19:30:00Z</time>
      </trkpt>
      <trkpt lat="57.03801477932" lon="14.954660343185">
        <ele>184.4</ele>
        <time>2020-03-19T19:30:04Z</time>
      </trkpt>
      <trkpt lat="57.038018215899" lon="14.954679370098">
        <ele>184.4</ele>
        <time>2020-03-19T19:30:05Z</time>
      </trkpt>
      <trkpt lat="57.03802399941" lon="14.95471356825">
        <ele>184.2</ele>
        <time>2020-03-19T19:30:08Z</time>
      </trkpt>
      <trkpt lat="57.038021317202" lon="14.954729074765">
        <ele>184.2</ele>
        <time>2020-03-19T19:30:09Z</time>
      </trkpt>
      <trkpt lat="57.037990974724" lon="14.954808451358">
        <ele>184.2</ele>
        <time>2020-03-19T19:30:15Z</time>
      </trkpt>
      <trkpt lat="57.037947305025" lon="14.954890677797">
        <ele>184.2</ele>
        <time>2020-03-19T19:30:18Z</time>
      </trkpt>
      <trkpt lat="57.037918219832" lon="14.954951865667">
        <ele>184.2</ele>
        <time>2020-03-19T19:30:22Z</time>
      </trkpt>
      <trkpt lat="57.037914867072" lon="14.954957230083">
        <ele>184.2</ele>
        <time>2020-03-19T19:30:23Z</time>
      </trkpt>
      <trkpt lat="57.037907742457" lon="14.954972820417">
        <ele>184.2</ele>
        <time>2020-03-19T19:30:26Z</time>
      </trkpt>
      <trkpt lat="57.037903970602" lon="14.95500861113">
        <ele>184.4</ele>
        <time>2020-03-19T19:30:28Z</time>
      </trkpt>
      <trkpt lat="57.037889637553" lon="14.955083964411">
        <ele>184.6</ele>
        <time>2020-03-19T19:30:31Z</time>
      </trkpt>
      <trkpt lat="57.037894499055" lon="14.955173231646">
        <ele>185.2</ele>
        <time>2020-03-19T19:30:34Z</time>
      </trkpt>
      <trkpt lat="57.037905646982" lon="14.955225367064">
        <ele>186.4</ele>
        <time>2020-03-19T19:30:36Z</time>
      </trkpt>
      <trkpt lat="57.037904808792" lon="14.955277586301">
        <ele>187.4</ele>
        <time>2020-03-19T19:30:39Z</time>
      </trkpt>
      <trkpt lat="57.037944790455" lon="14.955601127641">
        <ele>187</ele>
        <time>2020-03-19T19:30:49Z</time>
      </trkpt>
      <trkpt lat="57.037985358851" lon="14.955771196392">
        <ele>186.6</ele>
        <time>2020-03-19T19:30:56Z</time>
      </trkpt>
      <trkpt lat="57.037988963068" lon="14.955819476136">
        <ele>187</ele>
        <time>2020-03-19T19:30:58Z</time>
      </trkpt>
      <trkpt lat="57.037987202869" lon="14.955868510251">
        <ele>187.4</ele>
        <time>2020-03-19T19:31:01Z</time>
      </trkpt>
      <trkpt lat="57.038000865366" lon="14.955955514373">
        <ele>187.6</ele>
        <time>2020-03-19T19:31:04Z</time>
      </trkpt>
      <trkpt lat="57.038001619737" lon="14.956001195728">
        <ele>187.8</ele>
        <time>2020-03-19T19:31:06Z</time>
      </trkpt>
      <trkpt lat="57.038006229782" lon="14.956053666422">
        <ele>188</ele>
        <time>2020-03-19T19:31:09Z</time>
      </trkpt>
      <trkpt lat="57.038022574487" lon="14.956082081063">
        <ele>188</ele>
        <time>2020-03-19T19:31:11Z</time>
      </trkpt>
      <trkpt lat="57.038032884224" lon="14.956117033586">
        <ele>187.8</ele>
        <time>2020-03-19T19:31:13Z</time>
      </trkpt>
      <trkpt lat="57.038050570033" lon="14.956165648606">
        <ele>187</ele>
        <time>2020-03-19T19:31:16Z</time>
      </trkpt>
      <trkpt lat="57.038072530611" lon="14.956240331335">
        <ele>186.4</ele>
        <time>2020-03-19T19:31:19Z</time>
      </trkpt>
      <trkpt lat="57.038097676311" lon="14.956285006862">
        <ele>187.4</ele>
        <time>2020-03-19T19:31:24Z</time>
      </trkpt>
      <trkpt lat="57.038108069867" lon="14.956306548345">
        <ele>187.4</ele>
        <time>2020-03-19T19:31:25Z</time>
      </trkpt>
      <trkpt lat="57.038120475079" lon="14.956310990752">
        <ele>187.4</ele>
        <time>2020-03-19T19:31:27Z</time>
      </trkpt>
      <trkpt lat="57.038062975245" lon="14.956246282484">
        <ele>186.6</ele>
        <time>2020-03-19T19:31:48Z</time>
      </trkpt>
      <trkpt lat="57.038058700476" lon="14.956208815391">
        <ele>186.4</ele>
        <time>2020-03-19T19:31:50Z</time>
      </trkpt>
      <trkpt lat="57.038050402395" lon="14.956192470686">
        <ele>186.4</ele>
        <time>2020-03-19T19:31:51Z</time>
      </trkpt>
      <trkpt lat="57.037969936155" lon="14.955869599898">
        <ele>187.2</ele>
        <time>2020-03-19T19:32:01Z</time>
      </trkpt>
      <trkpt lat="57.037931547053" lon="14.955791312952">
        <ele>186.2</ele>
        <time>2020-03-19T19:32:05Z</time>
      </trkpt>
      <trkpt lat="57.037853595383" lon="14.955687125935">
        <ele>185.8</ele>
        <time>2020-03-19T19:32:13Z</time>
      </trkpt>
      <trkpt lat="57.03783289209" lon="14.955638259458">
        <ele>185.8</ele>
        <time>2020-03-19T19:32:16Z</time>
      </trkpt>
      <trkpt lat="57.037801795241" lon="14.955583525651">
        <ele>186.2</ele>
        <time>2020-03-19T19:32:20Z</time>
      </trkpt>
      <trkpt lat="57.037791485504" lon="14.955568773507">
        <ele>186.2</ele>
        <time>2020-03-19T19:32:21Z</time>
      </trkpt>
      <trkpt lat="57.037759718103" lon="14.955450001984">
        <ele>185.8</ele>
        <time>2020-03-19T19:32:26Z</time>
      </trkpt>
      <trkpt lat="57.037758963732" lon="14.95533885799">
        <ele>185.8</ele>
        <time>2020-03-19T19:32:31Z</time>
      </trkpt>
      <trkpt lat="57.037755024239" lon="14.955289656237">
        <ele>186</ele>
        <time>2020-03-19T19:32:33Z</time>
      </trkpt>
      <trkpt lat="57.037748318719" lon="14.955207681255">
        <ele>186.6</ele>
        <time>2020-03-19T19:32:36Z</time>
      </trkpt>
      <trkpt lat="57.03771806006" lon="14.955093687415">
        <ele>187.8</ele>
        <time>2020-03-19T19:32:39Z</time>
      </trkpt>
      <trkpt lat="57.037672462524" lon="14.95501028751">
        <ele>188.4</ele>
        <time>2020-03-19T19:32:44Z</time>
      </trkpt>
      <trkpt lat="57.037655447267" lon="14.954986063819">
        <ele>188.6</ele>
        <time>2020-03-19T19:32:46Z</time>
      </trkpt>
      <trkpt lat="57.037641952408" lon="14.954914314755">
        <ele>188.6</ele>
        <time>2020-03-19T19:32:48Z</time>
      </trkpt>
      <trkpt lat="57.03756215672" lon="14.954620361522">
        <ele>186.8</ele>
        <time>2020-03-19T19:33:00Z</time>
      </trkpt>
      <trkpt lat="57.037562072901" lon="14.954619942427">
        <ele>186.8</ele>
        <time>2020-03-19T19:33:01Z</time>
      </trkpt>
      <trkpt lat="57.037529634948" lon="14.954554228331">
        <ele>186.6</ele>
        <time>2020-03-19T19:33:05Z</time>
      </trkpt>
      <trkpt lat="57.037514044614" lon="14.954531178106">
        <ele>186.6</ele>
        <time>2020-03-19T19:33:07Z</time>
      </trkpt>
      <trkpt lat="57.037499627746" lon="14.954462362707">
        <ele>186.6</ele>
        <time>2020-03-19T19:33:10Z</time>
      </trkpt>
      <trkpt lat="57.037369037744" lon="14.954340322243">
        <ele>186.4</ele>
        <time>2020-03-19T19:33:21Z</time>
      </trkpt>
      <trkpt lat="57.03735177103" lon="14.954331521248">
        <ele>186.6</ele>
        <time>2020-03-19T19:33:23Z</time>
      </trkpt>
      <trkpt lat="57.037259402492" lon="14.954185340912">
        <ele>186</ele>
        <time>2020-03-19T19:33:30Z</time>
      </trkpt>
      <trkpt lat="57.037243057787" lon="14.954157680642">
        <ele>186</ele>
        <time>2020-03-19T19:33:32Z</time>
      </trkpt>
      <trkpt lat="57.03720676416" lon="14.954142928498">
        <ele>186</ele>
        <time>2020-03-19T19:33:34Z</time>
      </trkpt>
      <trkpt lat="57.037117329287" lon="14.954010578297">
        <ele>187.8</ele>
        <time>2020-03-19T19:33:41Z</time>
      </trkpt>
      <trkpt lat="57.036961090671" lon="14.953834558397">
        <ele>188.6</ele>
        <time>2020-03-19T19:33:50Z</time>
      </trkpt>
      <trkpt lat="57.036938627179" lon="14.953815950579">
        <ele>188.8</ele>
        <time>2020-03-19T19:33:51Z</time>
      </trkpt>
      <trkpt lat="57.036891856177" lon="14.953721318928">
        <ele>190.6</ele>
        <time>2020-03-19T19:33:55Z</time>
      </trkpt>
      <trkpt lat="57.036885066838" lon="14.953705560956">
        <ele>190.8</ele>
        <time>2020-03-19T19:33:56Z</time>
      </trkpt>
      <trkpt lat="57.036879115689" lon="14.953701789101">
        <ele>190.6</ele>
        <time>2020-03-19T19:33:59Z</time>
      </trkpt>
      <trkpt lat="57.036857993301" lon="14.953819638615">
        <ele>190</ele>
        <time>2020-03-19T19:34:25Z</time>
      </trkpt>
      <trkpt lat="57.036870901427" lon="14.953930363514">
        <ele>189.4</ele>
        <time>2020-03-19T19:34:29Z</time>
      </trkpt>
      <trkpt lat="57.036890431254" lon="14.954131277657">
        <ele>188.8</ele>
        <time>2020-03-19T19:34:38Z</time>
      </trkpt>
      <trkpt lat="57.036912475651" lon="14.954223143281">
        <ele>188.8</ele>
        <time>2020-03-19T19:34:42Z</time>
      </trkpt>
      <trkpt lat="57.036947260536" lon="14.954415004972">
        <ele>189</ele>
        <time>2020-03-19T19:34:48Z</time>
      </trkpt>
      <trkpt lat="57.036959749567" lon="14.954593539442">
        <ele>189</ele>
        <time>2020-03-19T19:34:52Z</time>
      </trkpt>
      <trkpt lat="57.036961258309" lon="14.954618936599">
        <ele>188.8</ele>
        <time>2020-03-19T19:34:53Z</time>
      </trkpt>
      <trkpt lat="57.036968550562" lon="14.954665456144">
        <ele>188.2</ele>
        <time>2020-03-19T19:34:55Z</time>
      </trkpt>
      <trkpt lat="57.036997887212" lon="14.954928647804">
        <ele>188.4</ele>
        <time>2020-03-19T19:35:06Z</time>
      </trkpt>
      <trkpt lat="57.037005430922" lon="14.954970808761">
        <ele>188.4</ele>
        <time>2020-03-19T19:35:08Z</time>
      </trkpt>
      <trkpt lat="57.037030492803" lon="14.955138865856">
        <ele>189.4</ele>
        <time>2020-03-19T19:35:13Z</time>
      </trkpt>
      <trkpt lat="57.037038958522" lon="14.955272473342">
        <ele>190.6</ele>
        <time>2020-03-19T19:35:16Z</time>
      </trkpt>
      <trkpt lat="57.037035605762" lon="14.955299546879">
        <ele>190.8</ele>
        <time>2020-03-19T19:35:17Z</time>
      </trkpt>
      <trkpt lat="57.037036863047" lon="14.955356879075">
        <ele>191.2</ele>
        <time>2020-03-19T19:35:19Z</time>
      </trkpt>
      <trkpt lat="57.037037282142" lon="14.955520409944">
        <ele>191.4</ele>
        <time>2020-03-19T19:35:25Z</time>
      </trkpt>
      <trkpt lat="57.037038036513" lon="14.955584950574">
        <ele>191.4</ele>
        <time>2020-03-19T19:35:27Z</time>
      </trkpt>
      <trkpt lat="57.037052034286" lon="14.955729957444">
        <ele>190.8</ele>
        <time>2020-03-19T19:35:33Z</time>
      </trkpt>
      <trkpt lat="57.037050441725" lon="14.955781841405">
        <ele>190.6</ele>
        <time>2020-03-19T19:35:35Z</time>
      </trkpt>
      <trkpt lat="57.037048765345" lon="14.956128516789">
        <ele>190.6</ele>
        <time>2020-03-19T19:35:42Z</time>
      </trkpt>
      <trkpt lat="57.037101487496" lon="14.956498410036">
        <ele>191.6</ele>
        <time>2020-03-19T19:35:50Z</time>
      </trkpt>
      <trkpt lat="57.037100816944" lon="14.956541325364">
        <ele>191.6</ele>
        <time>2020-03-19T19:35:51Z</time>
      </trkpt>
      <trkpt lat="57.037093273234" lon="14.956624892907">
        <ele>191.8</ele>
        <time>2020-03-19T19:35:54Z</time>
      </trkpt>
      <trkpt lat="57.03708019747" lon="14.956790183975">
        <ele>192.2</ele>
        <time>2020-03-19T19:35:57Z</time>
      </trkpt>
      <trkpt lat="57.037051279915" lon="14.956927479497">
        <ele>192</ele>
        <time>2020-03-19T19:36:01Z</time>
      </trkpt>
      <trkpt lat="57.037044239119" lon="14.957003419511">
        <ele>192</ele>
        <time>2020-03-19T19:36:03Z</time>
      </trkpt>
      <trkpt lat="57.037031163355" lon="14.957054800558">
        <ele>192</ele>
        <time>2020-03-19T19:36:06Z</time>
      </trkpt>
      <trkpt lat="57.036987577475" lon="14.95705547111">
        <ele>192</ele>
        <time>2020-03-19T19:36:08Z</time>
      </trkpt>
      <trkpt lat="57.036807115168" lon="14.956931335171">
        <ele>192.4</ele>
        <time>2020-03-19T19:36:15Z</time>
      </trkpt>
      <trkpt lat="57.036624641205" lon="14.956815497313">
        <ele>190.8</ele>
        <time>2020-03-19T19:36:23Z</time>
      </trkpt>
      <trkpt lat="57.036602345351" lon="14.956801667178">
        <ele>190.6</ele>
        <time>2020-03-19T19:36:24Z</time>
      </trkpt>
      <trkpt lat="57.036412495316" lon="14.956802589187">
        <ele>190.2</ele>
        <time>2020-03-19T19:36:30Z</time>
      </trkpt>
      <trkpt lat="57.036218035236" lon="14.956807115413">
        <ele>190</ele>
        <time>2020-03-19T19:36:35Z</time>
      </trkpt>
      <trkpt lat="57.036123655042" lon="14.956784149007">
        <ele>189.6</ele>
        <time>2020-03-19T19:36:40Z</time>
      </trkpt>
      <trkpt lat="57.036056935118" lon="14.956856987718">
        <ele>189</ele>
        <time>2020-03-19T19:36:47Z</time>
      </trkpt>
      <trkpt lat="57.036013684514" lon="14.956981542752">
        <ele>189.2</ele>
        <time>2020-03-19T19:36:51Z</time>
      </trkpt>
      <trkpt lat="57.036015025618" lon="14.957003251873">
        <ele>189</ele>
        <time>2020-03-19T19:36:52Z</time>
      </trkpt>
      <trkpt lat="57.036023072242" lon="14.957134428608">
        <ele>190</ele>
        <time>2020-03-19T19:36:56Z</time>
      </trkpt>
      <trkpt lat="57.036018043102" lon="14.957172482434">
        <ele>191</ele>
        <time>2020-03-19T19:36:58Z</time>
      </trkpt>
      <trkpt lat="57.036024580984" lon="14.957190587338">
        <ele>191.4</ele>
        <time>2020-03-19T19:36:59Z</time>
      </trkpt>
      <trkpt lat="57.036020892948" lon="14.957251691389">
        <ele>191.6</ele>
        <time>2020-03-19T19:37:01Z</time>
      </trkpt>
      <trkpt lat="57.036025502993" lon="14.957302318065">
        <ele>192.4</ele>
        <time>2020-03-19T19:37:03Z</time>
      </trkpt>
      <trkpt lat="57.03602491626" lon="14.957387310531">
        <ele>193.6</ele>
        <time>2020-03-19T19:37:06Z</time>
      </trkpt>
      <trkpt lat="57.035995076696" lon="14.957441373786">
        <ele>194.6</ele>
        <time>2020-03-19T19:37:10Z</time>
      </trkpt>
      <trkpt lat="57.035989293185" lon="14.957455036283">
        <ele>194.8</ele>
        <time>2020-03-19T19:37:11Z</time>
      </trkpt>
      <trkpt lat="57.03596791934" lon="14.957495269403">
        <ele>194.6</ele>
        <time>2020-03-19T19:37:13Z</time>
      </trkpt>
      <trkpt lat="57.03590673147" lon="14.957614376202">
        <ele>195</ele>
        <time>2020-03-19T19:37:17Z</time>
      </trkpt>
      <trkpt lat="57.035900696502" lon="14.957628457794">
        <ele>195.4</ele>
        <time>2020-03-19T19:37:19Z</time>
      </trkpt>
      <trkpt lat="57.035863397047" lon="14.957735578476">
        <ele>195.6</ele>
        <time>2020-03-19T19:37:24Z</time>
      </trkpt>
      <trkpt lat="57.035851997663" lon="14.957808417187">
        <ele>195.6</ele>
        <time>2020-03-19T19:37:26Z</time>
      </trkpt>
      <trkpt lat="57.035839508632" lon="14.957829623394">
        <ele>195.8</ele>
        <time>2020-03-19T19:37:28Z</time>
      </trkpt>
      <trkpt lat="57.035785864472" lon="14.957873293093">
        <ele>195.8</ele>
        <time>2020-03-19T19:37:32Z</time>
      </trkpt>
      <trkpt lat="57.035770777052" lon="14.958001284706">
        <ele>196.2</ele>
        <time>2020-03-19T19:37:35Z</time>
      </trkpt>
      <trkpt lat="57.035763987713" lon="14.958072447037">
        <ele>196.4</ele>
        <time>2020-03-19T19:37:40Z</time>
      </trkpt>
      <trkpt lat="57.035753258881" lon="14.958128521948">
        <ele>196</ele>
        <time>2020-03-19T19:37:45Z</time>
      </trkpt>
      <trkpt lat="57.035745463714" lon="14.95818535123">
        <ele>196</ele>
        <time>2020-03-19T19:37:51Z</time>
      </trkpt>
      <trkpt lat="57.035761137867" lon="14.958251819697">
        <ele>196</ele>
        <time>2020-03-19T19:37:53Z</time>
      </trkpt>
      <trkpt lat="57.035775554735" lon="14.958296076129">
        <ele>196</ele>
        <time>2020-03-19T19:37:55Z</time>
      </trkpt>
      <trkpt lat="57.0357868703" lon="14.958312504653">
        <ele>196</ele>
        <time>2020-03-19T19:37:57Z</time>
      </trkpt>
      <trkpt lat="57.035821487547" lon="14.958398922042">
        <ele>196</ele>
        <time>2020-03-19T19:38:01Z</time>
      </trkpt>
      <trkpt lat="57.035833473664" lon="14.958475113513">
        <ele>196.4</ele>
        <time>2020-03-19T19:38:04Z</time>
      </trkpt>
      <trkpt lat="57.035858451726" lon="14.958579803444">
        <ele>196.8</ele>
        <time>2020-03-19T19:38:07Z</time>
      </trkpt>
      <trkpt lat="57.035873958241" lon="14.9586069608">
        <ele>197</ele>
        <time>2020-03-19T19:38:09Z</time>
      </trkpt>
      <trkpt lat="57.035908994583" lon="14.958631603586">
        <ele>196.6</ele>
        <time>2020-03-19T19:38:13Z</time>
      </trkpt>
      <trkpt lat="57.035911509153" lon="14.958636381269">
        <ele>196.6</ele>
        <time>2020-03-19T19:38:16Z</time>
      </trkpt>
      <trkpt lat="57.035918214673" lon="14.958665215005">
        <ele>196.6</ele>
        <time>2020-03-19T19:38:19Z</time>
      </trkpt>
      <trkpt lat="57.035933469731" lon="14.958787674564">
        <ele>197</ele>
        <time>2020-03-19T19:38:23Z</time>
      </trkpt>
      <trkpt lat="57.035935649025" lon="14.95881986106">
        <ele>197.4</ele>
        <time>2020-03-19T19:38:25Z</time>
      </trkpt>
      <trkpt lat="57.035943947106" lon="14.958869649546">
        <ele>197.6</ele>
        <time>2020-03-19T19:38:28Z</time>
      </trkpt>
      <trkpt lat="57.035978731991" lon="14.958920024765">
        <ele>197.2</ele>
        <time>2020-03-19T19:38:32Z</time>
      </trkpt>
      <trkpt lat="57.036081494085" lon="14.959067462386">
        <ele>197</ele>
        <time>2020-03-19T19:38:43Z</time>
      </trkpt>
      <trkpt lat="57.036080488257" lon="14.959098726873">
        <ele>197</ele>
        <time>2020-03-19T19:38:45Z</time>
      </trkpt>
      <trkpt lat="57.036059952602" lon="14.959062768522">
        <ele>197</ele>
        <time>2020-03-19T19:38:53Z</time>
      </trkpt>
      <trkpt lat="57.036021982595" lon="14.958918599842">
        <ele>197</ele>
        <time>2020-03-19T19:39:01Z</time>
      </trkpt>
      <trkpt lat="57.036041931517" lon="14.958916588186">
        <ele>197</ele>
        <time>2020-03-19T19:39:05Z</time>
      </trkpt>
      <trkpt lat="57.036043943173" lon="14.958875097781">
        <ele>197.4</ele>
        <time>2020-03-19T19:39:07Z</time>
      </trkpt>
      <trkpt lat="57.036051403064" lon="14.958796056464">
        <ele>197.8</ele>
        <time>2020-03-19T19:39:10Z</time>
      </trkpt>
      <trkpt lat="57.036063221543" lon="14.958779208845">
        <ele>198</ele>
        <time>2020-03-19T19:39:11Z</time>
      </trkpt>
      <trkpt lat="57.036070849072" lon="14.958765546348">
        <ele>198</ele>
        <time>2020-03-19T19:39:12Z</time>
      </trkpt>
      <trkpt lat="57.036124493232" lon="14.958658760942">
        <ele>199</ele>
        <time>2020-03-19T19:39:18Z</time>
      </trkpt>
      <trkpt lat="57.036151147674" lon="14.958584078213">
        <ele>199.6</ele>
        <time>2020-03-19T19:39:22Z</time>
      </trkpt>
      <trkpt lat="57.036168330569" lon="14.958574858123">
        <ele>199.6</ele>
        <time>2020-03-19T19:39:24Z</time>
      </trkpt>
      <trkpt lat="57.036258855089" lon="14.958406549571">
        <ele>199.8</ele>
        <time>2020-03-19T19:39:32Z</time>
      </trkpt>
      <trkpt lat="57.036280815667" lon="14.958367070822">
        <ele>199.8</ele>
        <time>2020-03-19T19:39:34Z</time>
      </trkpt>
      <trkpt lat="57.036292550327" lon="14.958295489396">
        <ele>200</ele>
        <time>2020-03-19T19:39:37Z</time>
      </trkpt>
      <trkpt lat="57.036302608607" lon="14.958205635428">
        <ele>200</ele>
        <time>2020-03-19T19:39:41Z</time>
      </trkpt>
      <trkpt lat="57.036307470109" lon="14.958154757295">
        <ele>200</ele>
        <time>2020-03-19T19:39:43Z</time>
      </trkpt>
      <trkpt lat="57.036322054615" lon="14.958107231922">
        <ele>200</ele>
        <time>2020-03-19T19:39:46Z</time>
      </trkpt>
      <trkpt lat="57.036332112895" lon="14.958091138674">
        <ele>200.2</ele>
        <time>2020-03-19T19:39:47Z</time>
      </trkpt>
      <trkpt lat="57.036339908062" lon="14.958078482005">
        <ele>200.2</ele>
        <time>2020-03-19T19:39:48Z</time>
      </trkpt>
      <trkpt lat="57.036412579135" lon="14.957944706881">
        <ele>199.6</ele>
        <time>2020-03-19T19:40:05Z</time>
      </trkpt>
      <trkpt lat="57.036425654899" lon="14.95794898165">
        <ele>199.8</ele>
        <time>2020-03-19T19:40:09Z</time>
      </trkpt>
      <trkpt lat="57.036423224148" lon="14.957922913941">
        <ele>199.8</ele>
        <time>2020-03-19T19:40:11Z</time>
      </trkpt>
      <trkpt lat="57.036433869161" lon="14.957935822067">
        <ele>199.8</ele>
        <time>2020-03-19T19:40:13Z</time>
      </trkpt>
      <trkpt lat="57.03644736402" lon="14.957945545071">
        <ele>200</ele>
        <time>2020-03-19T19:40:15Z</time>
      </trkpt>
      <trkpt lat="57.036469827512" lon="14.958039925265">
        <ele>200.2</ele>
        <time>2020-03-19T19:40:19Z</time>
      </trkpt>
      <trkpt lat="57.036466893847" lon="14.958233295698">
        <ele>200.8</ele>
        <time>2020-03-19T19:40:25Z</time>
      </trkpt>
      <trkpt lat="57.036470665702" lon="14.95824821548">
        <ele>200.6</ele>
        <time>2020-03-19T19:40:26Z</time>
      </trkpt>
      <trkpt lat="57.036472342082" lon="14.958269337868">
        <ele>200.4</ele>
        <time>2020-03-19T19:40:28Z</time>
      </trkpt>
      <trkpt lat="57.036455578282" lon="14.958396742748">
        <ele>200.2</ele>
        <time>2020-03-19T19:40:45Z</time>
      </trkpt>
      <trkpt lat="57.036485836941" lon="14.958561279445">
        <ele>200.4</ele>
        <time>2020-03-19T19:40:50Z</time>
      </trkpt>
      <trkpt lat="57.036543001499" lon="14.958427169045">
        <ele>201.2</ele>
        <time>2020-03-19T19:41:05Z</time>
      </trkpt>
      <trkpt lat="57.036674932605" lon="14.958353575963">
        <ele>202.2</ele>
        <time>2020-03-19T19:41:21Z</time>
      </trkpt>
      <trkpt lat="57.036678201546" lon="14.958252322611">
        <ele>203.2</ele>
        <time>2020-03-19T19:41:42Z</time>
      </trkpt>
      <trkpt lat="57.036662359755" lon="14.958082505317">
        <ele>202.2</ele>
        <time>2020-03-19T19:41:49Z</time>
      </trkpt>
      <trkpt lat="57.036649703086" lon="14.958044367672">
        <ele>201.8</ele>
        <time>2020-03-19T19:41:51Z</time>
      </trkpt>
      <trkpt lat="57.036642159376" lon="14.957993154263">
        <ele>201.2</ele>
        <time>2020-03-19T19:41:53Z</time>
      </trkpt>
      <trkpt lat="57.03663511858" lon="14.957979910861">
        <ele>201.2</ele>
        <time>2020-03-19T19:41:54Z</time>
      </trkpt>
      <trkpt lat="57.036605865749" lon="14.957951328582">
        <ele>201.2</ele>
        <time>2020-03-19T19:41:56Z</time>
      </trkpt>
      <trkpt lat="57.036512659021" lon="14.95782576772">
        <ele>200.4</ele>
        <time>2020-03-19T19:42:03Z</time>
      </trkpt>
      <trkpt lat="57.036473180272" lon="14.957842866796">
        <ele>200.2</ele>
        <time>2020-03-19T19:42:07Z</time>
      </trkpt>
      <trkpt lat="57.036457757576" lon="14.957851164877">
        <ele>200.2</ele>
        <time>2020-03-19T19:42:08Z</time>
      </trkpt>
      <trkpt lat="57.036430935496" lon="14.957824845711">
        <ele>200</ele>
        <time>2020-03-19T19:42:10Z</time>
      </trkpt>
      <trkpt lat="57.03638114701" lon="14.957822331141">
        <ele>199.4</ele>
        <time>2020-03-19T19:42:13Z</time>
      </trkpt>
      <trkpt lat="57.036357845328" lon="14.957812608137">
        <ele>199</ele>
        <time>2020-03-19T19:42:15Z</time>
      </trkpt>
      <trkpt lat="57.036341249166" lon="14.957815625621">
        <ele>199</ele>
        <time>2020-03-19T19:42:16Z</time>
      </trkpt>
      <trkpt lat="57.036253658311" lon="14.957724598187">
        <ele>198.6</ele>
        <time>2020-03-19T19:42:21Z</time>
      </trkpt>
      <trkpt lat="57.036240582547" lon="14.957724011454">
        <ele>198.4</ele>
        <time>2020-03-19T19:42:22Z</time>
      </trkpt>
      <trkpt lat="57.036215436847" lon="14.957696518822">
        <ele>198</ele>
        <time>2020-03-19T19:42:24Z</time>
      </trkpt>
      <trkpt lat="57.036079985343" lon="14.957730046422">
        <ele>197</ele>
        <time>2020-03-19T19:42:34Z</time>
      </trkpt>
      <trkpt lat="57.036014690342" lon="14.957738428322">
        <ele>196.8</ele>
        <time>2020-03-19T19:42:39Z</time>
      </trkpt>
      <trkpt lat="57.035969344263" lon="14.957757706692">
        <ele>196.2</ele>
        <time>2020-03-19T19:42:43Z</time>
      </trkpt>
      <trkpt lat="57.035956100861" lon="14.957757287597">
        <ele>195.8</ele>
        <time>2020-03-19T19:42:45Z</time>
      </trkpt>
      <trkpt lat="57.035925758383" lon="14.957745133842">
        <ele>195.2</ele>
        <time>2020-03-19T19:42:48Z</time>
      </trkpt>
      <trkpt lat="57.035882759236" lon="14.957760724176">
        <ele>195.2</ele>
        <time>2020-03-19T19:42:50Z</time>
      </trkpt>
      <trkpt lat="57.035835066225" lon="14.957705571274">
        <ele>195.4</ele>
        <time>2020-03-19T19:42:54Z</time>
      </trkpt>
      <trkpt lat="57.035809166154" lon="14.957685119438">
        <ele>195.4</ele>
        <time>2020-03-19T19:42:56Z</time>
      </trkpt>
      <trkpt lat="57.035783936635" lon="14.957658716453">
        <ele>195.4</ele>
        <time>2020-03-19T19:42:59Z</time>
      </trkpt>
      <trkpt lat="57.035727526448" lon="14.957590906882">
        <ele>194.8</ele>
        <time>2020-03-19T19:43:03Z</time>
      </trkpt>
      <trkpt lat="57.03570808044" lon="14.957517062343">
        <ele>194.8</ele>
        <time>2020-03-19T19:43:06Z</time>
      </trkpt>
      <trkpt lat="57.035631721331" lon="14.957383119581">
        <ele>194.4</ele>
        <time>2020-03-19T19:43:13Z</time>
      </trkpt>
      <trkpt lat="57.03560749764" lon="14.957381862296">
        <ele>193.6</ele>
        <time>2020-03-19T19:43:16Z</time>
      </trkpt>
      <trkpt lat="57.035511692523" lon="14.957389406006">
        <ele>193.4</ele>
        <time>2020-03-19T19:43:26Z</time>
      </trkpt>
      <trkpt lat="57.035492833248" lon="14.957363673573">
        <ele>193.4</ele>
        <time>2020-03-19T19:43:28Z</time>
      </trkpt>
      <trkpt lat="57.035479422208" lon="14.957338863149">
        <ele>193.4</ele>
        <time>2020-03-19T19:43:30Z</time>
      </trkpt>
      <trkpt lat="57.035462574589" lon="14.957287901197">
        <ele>193.4</ele>
        <time>2020-03-19T19:43:34Z</time>
      </trkpt>
      <trkpt lat="57.035462155494" lon="14.957274657795">
        <ele>192.6</ele>
        <time>2020-03-19T19:43:38Z</time>
      </trkpt>
      <trkpt lat="57.03550942941" lon="14.957270215388">
        <ele>192.2</ele>
        <time>2020-03-19T19:43:50Z</time>
      </trkpt>
      <trkpt lat="57.035476153267" lon="14.957119425007">
        <ele>191.4</ele>
        <time>2020-03-19T19:44:14Z</time>
      </trkpt>
      <trkpt lat="57.035490821592" lon="14.957034348722">
        <ele>190.2</ele>
        <time>2020-03-19T19:44:17Z</time>
      </trkpt>
      <trkpt lat="57.035495683094" lon="14.957001659312">
        <ele>189.8</ele>
        <time>2020-03-19T19:44:18Z</time>
      </trkpt>
      <trkpt lat="57.03551529674" lon="14.956939130338">
        <ele>189</ele>
        <time>2020-03-19T19:44:20Z</time>
      </trkpt>
      <trkpt lat="57.035540610078" lon="14.956756740194">
        <ele>188</ele>
        <time>2020-03-19T19:44:25Z</time>
      </trkpt>
      <trkpt lat="57.035539855707" lon="14.956722793499">
        <ele>187.6</ele>
        <time>2020-03-19T19:44:27Z</time>
      </trkpt>
      <trkpt lat="57.035529462151" lon="14.956583151045">
        <ele>186.8</ele>
        <time>2020-03-19T19:44:31Z</time>
      </trkpt>
      <trkpt lat="57.035396357579" lon="14.9564779582">
        <ele>186.2</ele>
        <time>2020-03-19T19:44:53Z</time>
      </trkpt>
      <trkpt lat="57.035373894087" lon="14.956452980138">
        <ele>185.8</ele>
        <time>2020-03-19T19:44:55Z</time>
      </trkpt>
      <trkpt lat="57.0353258658" lon="14.956383913282">
        <ele>184.8</ele>
        <time>2020-03-19T19:45:01Z</time>
      </trkpt>
      <trkpt lat="57.03531999847" lon="14.956375363744">
        <ele>184.6</ele>
        <time>2020-03-19T19:45:02Z</time>
      </trkpt>
      <trkpt lat="57.035315556063" lon="14.956361868885">
        <ele>184.6</ele>
        <time>2020-03-19T19:45:03Z</time>
      </trkpt>
      <trkpt lat="57.035294349856" lon="14.956325156163">
        <ele>184.2</ele>
        <time>2020-03-19T19:45:06Z</time>
      </trkpt>
      <trkpt lat="57.0352923382" lon="14.956301267748">
        <ele>183.8</ele>
        <time>2020-03-19T19:45:10Z</time>
      </trkpt>
      <trkpt lat="57.035271718726" lon="14.956270506175">
        <ele>183.8</ele>
        <time>2020-03-19T19:45:13Z</time>
      </trkpt>
      <trkpt lat="57.035268198328" lon="14.956255502574">
        <ele>183.6</ele>
        <time>2020-03-19T19:45:16Z</time>
      </trkpt>
      <trkpt lat="57.035322261583" lon="14.956381147255">
        <ele>183.6</ele>
        <time>2020-03-19T19:45:25Z</time>
      </trkpt>
      <trkpt lat="57.035383197996" lon="14.956429426999">
        <ele>184.2</ele>
        <time>2020-03-19T19:45:31Z</time>
      </trkpt>
      <trkpt lat="57.035409600981" lon="14.956425655144">
        <ele>184.8</ele>
        <time>2020-03-19T19:45:36Z</time>
      </trkpt>
      <trkpt lat="57.035424856039" lon="14.956468319015">
        <ele>184.8</ele>
        <time>2020-03-19T19:45:47Z</time>
      </trkpt>
      <trkpt lat="57.0354180667" lon="14.956559094992">
        <ele>185</ele>
        <time>2020-03-19T19:45:51Z</time>
      </trkpt>
      <trkpt lat="57.035411025904" lon="14.956590527117">
        <ele>185.2</ele>
        <time>2020-03-19T19:45:53Z</time>
      </trkpt>
      <trkpt lat="57.035389232964" lon="14.956643836001">
        <ele>185.8</ele>
        <time>2020-03-19T19:45:57Z</time>
      </trkpt>
      <trkpt lat="57.035364003445" lon="14.956666383312">
        <ele>186</ele>
        <time>2020-03-19T19:45:58Z</time>
      </trkpt>
      <trkpt lat="57.03534849693" lon="14.956700162369">
        <ele>186.8</ele>
        <time>2020-03-19T19:46:00Z</time>
      </trkpt>
      <trkpt lat="57.035346652912" lon="14.956719776015">
        <ele>187</ele>
        <time>2020-03-19T19:46:01Z</time>
      </trkpt>
      <trkpt lat="57.035343216333" lon="14.956787501767">
        <ele>187.4</ele>
        <time>2020-03-19T19:46:04Z</time>
      </trkpt>
      <trkpt lat="57.035345060351" lon="14.956810971087">
        <ele>187.8</ele>
        <time>2020-03-19T19:46:06Z</time>
      </trkpt>
      <trkpt lat="57.03533592408" lon="14.956841984117">
        <ele>188.2</ele>
        <time>2020-03-19T19:46:08Z</time>
      </trkpt>
      <trkpt lat="57.035328883284" lon="14.956894203354">
        <ele>188.4</ele>
        <time>2020-03-19T19:46:10Z</time>
      </trkpt>
      <trkpt lat="57.035330978759" lon="14.956946590229">
        <ele>188.6</ele>
        <time>2020-03-19T19:46:12Z</time>
      </trkpt>
      <trkpt lat="57.035332403682" lon="14.957017249646">
        <ele>188.8</ele>
        <time>2020-03-19T19:46:15Z</time>
      </trkpt>
      <trkpt lat="57.035318908823" lon="14.957066199942">
        <ele>188.8</ele>
        <time>2020-03-19T19:46:18Z</time>
      </trkpt>
      <trkpt lat="57.035316058977" lon="14.957128058364">
        <ele>189</ele>
        <time>2020-03-19T19:46:20Z</time>
      </trkpt>
      <trkpt lat="57.035315388425" lon="14.957164100534">
        <ele>189.2</ele>
        <time>2020-03-19T19:46:22Z</time>
      </trkpt>
      <trkpt lat="57.035323686506" lon="14.957256301434">
        <ele>190.2</ele>
        <time>2020-03-19T19:46:26Z</time>
      </trkpt>
      <trkpt lat="57.03531999847" lon="14.957293936165">
        <ele>190.8</ele>
        <time>2020-03-19T19:46:28Z</time>
      </trkpt>
      <trkpt lat="57.035320249927" lon="14.957325703566">
        <ele>191.2</ele>
        <time>2020-03-19T19:46:31Z</time>
      </trkpt>
      <trkpt lat="57.035322093945" lon="14.95733961752">
        <ele>191.2</ele>
        <time>2020-03-19T19:46:32Z</time>
      </trkpt>
      <trkpt lat="57.035325698162" lon="14.957353280017">
        <ele>191.4</ele>
        <time>2020-03-19T19:46:33Z</time>
      </trkpt>
      <trkpt lat="57.035332152225" lon="14.957415557534">
        <ele>191.6</ele>
        <time>2020-03-19T19:46:36Z</time>
      </trkpt>
      <trkpt lat="57.035332906596" lon="14.957492587195">
        <ele>192.4</ele>
        <time>2020-03-19T19:46:40Z</time>
      </trkpt>
      <trkpt lat="57.035330643483" lon="14.957578836946">
        <ele>192.6</ele>
        <time>2020-03-19T19:46:44Z</time>
      </trkpt>
      <trkpt lat="57.035317400081" lon="14.957622171369">
        <ele>192.8</ele>
        <time>2020-03-19T19:46:47Z</time>
      </trkpt>
      <trkpt lat="57.035312790036" lon="14.957656620978">
        <ele>193.2</ele>
        <time>2020-03-19T19:46:50Z</time>
      </trkpt>
      <trkpt lat="57.035311365113" lon="14.957670534932">
        <ele>193.4</ele>
        <time>2020-03-19T19:46:51Z</time>
      </trkpt>
      <trkpt lat="57.035312119484" lon="14.957732896268">
        <ele>193.6</ele>
        <time>2020-03-19T19:46:54Z</time>
      </trkpt>
      <trkpt lat="57.035306168335" lon="14.957799532373">
        <ele>193.4</ele>
        <time>2020-03-19T19:46:58Z</time>
      </trkpt>
      <trkpt lat="57.03530491105" lon="14.957822331141">
        <ele>193.4</ele>
        <time>2020-03-19T19:47:00Z</time>
      </trkpt>
      <trkpt lat="57.035274065658" lon="14.957939593922">
        <ele>193.6</ele>
        <time>2020-03-19T19:47:05Z</time>
      </trkpt>
      <trkpt lat="57.035253613822" lon="14.958067753173">
        <ele>193.4</ele>
        <time>2020-03-19T19:47:13Z</time>
      </trkpt>
      <trkpt lat="57.035250847795" lon="14.958178394253">
        <ele>193.6</ele>
        <time>2020-03-19T19:47:16Z</time>
      </trkpt>
      <trkpt lat="57.035270042346" lon="14.958251903516">
        <ele>193.8</ele>
        <time>2020-03-19T19:47:18Z</time>
      </trkpt>
      <trkpt lat="57.035290075087" lon="14.958310157721">
        <ele>194.4</ele>
        <time>2020-03-19T19:47:20Z</time>
      </trkpt>
      <trkpt lat="57.035313125312" lon="14.958370088306">
        <ele>195.6</ele>
        <time>2020-03-19T19:47:22Z</time>
      </trkpt>
      <trkpt lat="57.035340450306" lon="14.958397078024">
        <ele>195.8</ele>
        <time>2020-03-19T19:47:24Z</time>
      </trkpt>
      <trkpt lat="57.035341120858" lon="14.95846363031">
        <ele>194.6</ele>
        <time>2020-03-19T19:47:31Z</time>
      </trkpt>
      <trkpt lat="57.035309102" lon="14.958490368571">
        <ele>194.4</ele>
        <time>2020-03-19T19:47:33Z</time>
      </trkpt>
      <trkpt lat="57.035284626852" lon="14.958521800696">
        <ele>194.2</ele>
        <time>2020-03-19T19:47:35Z</time>
      </trkpt>
      <trkpt lat="57.035256631306" lon="14.958551053527">
        <ele>194</ele>
        <time>2020-03-19T19:47:38Z</time>
      </trkpt>
      <trkpt lat="57.035149762081" lon="14.958635626898">
        <ele>193.4</ele>
        <time>2020-03-19T19:47:45Z</time>
      </trkpt>
      <trkpt lat="57.035064266701" lon="14.958694551655">
        <ele>192.2</ele>
        <time>2020-03-19T19:47:50Z</time>
      </trkpt>
      <trkpt lat="57.034880116358" lon="14.958742831399">
        <ele>191.4</ele>
        <time>2020-03-19T19:47:58Z</time>
      </trkpt>
      <trkpt lat="57.034853713373" lon="14.958777532465">
        <ele>191</ele>
        <time>2020-03-19T19:48:00Z</time>
      </trkpt>
      <trkpt lat="57.034762937396" lon="14.958863866035">
        <ele>190</ele>
        <time>2020-03-19T19:48:06Z</time>
      </trkpt>
      <trkpt lat="57.034630335738" lon="14.958908960657">
        <ele>189</ele>
        <time>2020-03-19T19:48:13Z</time>
      </trkpt>
      <trkpt lat="57.034610805911" lon="14.958902590413">
        <ele>188.8</ele>
        <time>2020-03-19T19:48:14Z</time>
      </trkpt>
      <trkpt lat="57.034574512284" lon="14.958919354213">
        <ele>188.4</ele>
        <time>2020-03-19T19:48:17Z</time>
      </trkpt>
      <trkpt lat="57.034545762367" lon="14.958930418321">
        <ele>188.2</ele>
        <time>2020-03-19T19:48:19Z</time>
      </trkpt>
      <trkpt lat="57.034500081012" lon="14.958950534881">
        <ele>188.2</ele>
        <time>2020-03-19T19:48:22Z</time>
      </trkpt>
      <trkpt lat="57.034466972507" lon="14.958942991171">
        <ele>188.2</ele>
        <time>2020-03-19T19:48:24Z</time>
      </trkpt>
      <trkpt lat="57.034410143225" lon="14.958944080818">
        <ele>188.8</ele>
        <time>2020-03-19T19:48:27Z</time>
      </trkpt>
      <trkpt lat="57.034352894848" lon="14.958947936492">
        <ele>189.2</ele>
        <time>2020-03-19T19:48:30Z</time>
      </trkpt>
      <trkpt lat="57.034280056137" lon="14.958948439406">
        <ele>190</ele>
        <time>2020-03-19T19:48:34Z</time>
      </trkpt>
      <trkpt lat="57.03406438985" lon="14.959042568143">
        <ele>189.4</ele>
        <time>2020-03-19T19:48:42Z</time>
      </trkpt>
      <trkpt lat="57.033980487031" lon="14.959086237842">
        <ele>188.8</ele>
        <time>2020-03-19T19:48:45Z</time>
      </trkpt>
      <trkpt lat="57.033905552845" lon="14.959143486219">
        <ele>188.2</ele>
        <time>2020-03-19T19:48:49Z</time>
      </trkpt>
      <trkpt lat="57.033870097408" lon="14.959190760135">
        <ele>188.2</ele>
        <time>2020-03-19T19:48:51Z</time>
      </trkpt>
      <trkpt lat="57.033826092433" lon="14.959246835046">
        <ele>188.2</ele>
        <time>2020-03-19T19:48:54Z</time>
      </trkpt>
      <trkpt lat="57.033711595679" lon="14.959396871056">
        <ele>187.6</ele>
        <time>2020-03-19T19:48:59Z</time>
      </trkpt>
      <trkpt lat="57.033582933514" lon="14.959415897969">
        <ele>187.2</ele>
        <time>2020-03-19T19:49:04Z</time>
      </trkpt>
      <trkpt lat="57.033548903" lon="14.959418412539">
        <ele>186.6</ele>
        <time>2020-03-19T19:49:06Z</time>
      </trkpt>
    </trkseg>
  </trk>
</gpx>